M I D A S
Marine Information and Data Acquisition System
Tripno 848 of the Zeeleeuw from 2005-02-18 08:11:09 to 2005-02-18 12:28:13
Back to CruiseResearch ActivitiesStationsMapUnderway DataData graphs

EquipmentUnitsComment
TimeDGPSUTC
LatitudeDGPSDM.mWGS84
LongitudeDGPSDM.mWGS84
TemperatureSBE03/SBE38deg celciusITS90
ConductivitySBE21S/mITS90
SalinitySBE21 Practical Salinity Units
ChlorophylAChelsea fluorimeterg/lCalibrated in Aceton
Missing or incorrect values are displayed as -999
Sea surface data collected by the RV Zeeleeuw from 2005-02-18 08:12:17 to 2005-02-18 12:34:27
                                                                                    Next 1000 lines
Time Latitude Longitude Temperature Conductivity Salinity ChlorophylA
2005-02-18 08:12:26 51°13.595 2°56.101 14.0643 0.071061 0.41496 -0.882377
2005-02-18 08:12:32 51°13.595 2°56.1 14.0425 0.071061 0.41496 -0.848668
2005-02-18 08:12:36 51°13.596 2°56.099 14.062 0.071061 0.414967 -0.848668
2005-02-18 08:12:41 51°13.596 2°56.097 14.0829 0.071061 0.414967 -0.814958
2005-02-18 08:12:47 51°13.597 2°56.096 14.0884 0.071061 0.414967 -0.814958
2005-02-18 08:12:51 51°13.598 2°56.094 14.1318 0.071061 0.414967 -0.848668
2005-02-18 08:12:57 51°13.599 2°56.093 14.1269 0.071061 0.414967 -0.848668
2005-02-18 08:13:01 51°13.599 2°56.091 14.1197 0.071061 0.414975 -0.814958
2005-02-18 08:13:06 51°13.6 2°56.09 14.1026 0.071061 0.414967 -0.848668
2005-02-18 08:13:12 51°13.601 2°56.088 14.1107 0.071061 0.414967 -0.848668
2005-02-18 08:13:17 51°13.601 2°56.087 14.107 0.071061 0.414967 -0.848668
2005-02-18 08:13:22 51°13.602 2°56.085 14.0328 0.071061 0.414967 -0.848668
2005-02-18 08:13:26 51°13.602 2°56.083 14.0327 0.070957 0.414353 -0.848668
2005-02-18 08:13:32 51°13.603 2°56.081 13.9557 0.070957 0.414353 -0.848668
2005-02-18 08:13:36 51°13.604 2°56.078 14.0851 0.071061 0.414989 -0.848668
2005-02-18 08:13:42 51°13.606 2°56.073 14.0575 0.071061 0.415004 -0.848668
2005-02-18 08:13:47 51°13.607 2°56.069 14.1374 0.071061 0.415004 -0.848668
2005-02-18 08:13:52 51°13.609 2°56.064 14.0984 0.071061 0.415004 -0.882377
2005-02-18 08:13:57 51°13.611 2°56.058 14.1137 0.071061 0.415004 -0.848668
2005-02-18 08:14:02 51°13.612 2°56.052 14.0835 0.070957 0.414361 -0.848668
2005-02-18 08:14:07 51°13.614 2°56.045 14.1052 0.070957 0.414353 -0.848668
2005-02-18 08:14:12 51°13.616 2°56.039 14.1151 0.070957 0.414346 -0.882377
2005-02-18 08:14:17 51°13.618 2°56.032 14.1261 0.070957 0.414346 -0.882377
2005-02-18 08:14:22 51°13.62 2°56.025 14.1324 0.071061 0.414967 -0.814958
2005-02-18 08:14:27 51°13.623 2°56.017 14.1293 0.070957 0.414346 -0.848668
2005-02-18 08:14:32 51°13.625 2°56.009 14.1386 0.071061 0.414975 -0.848668
2005-02-18 08:14:36 51°13.627 2°56.003 14.14 0.070957 0.414361 -0.848668
2005-02-18 08:14:42 51°13.63 2°55.995 14.1412 0.070957 0.414375 -0.848668
2005-02-18 08:14:47 51°13.633 2°55.986 14.1635 0.070957 0.414375 -0.848668
2005-02-18 08:14:52 51°13.636 2°55.979 14.142 0.070957 0.41439 -0.848668
2005-02-18 08:14:57 51°13.64 2°55.969 14.1402 0.070957 0.414404 -0.848668
2005-02-18 08:15:02 51°13.643 2°55.962 14.1435 0.070957 0.414404 -0.882377
2005-02-18 08:15:07 51°13.647 2°55.952 14.1468 0.071061 0.41504 -0.882377
2005-02-18 08:15:12 51°13.651 2°55.944 14.1534 0.071061 0.41504 -0.848668
2005-02-18 08:15:17 51°13.655 2°55.935 14.1771 0.071061 0.41504 -0.848668
2005-02-18 08:15:22 51°13.658 2°55.927 14.1844 0.070957 0.414404 -0.848668
2005-02-18 08:15:27 51°13.662 2°55.918 14.19 0.070957 0.414404 -0.848668
2005-02-18 08:15:32 51°13.666 2°55.909 14.1817 0.070957 0.414397 -0.848668
2005-02-18 08:15:36 51°13.669 2°55.902 14.1742 0.071061 0.415033 -0.848668
2005-02-18 08:15:42 51°13.674 2°55.892 14.1655 0.070957 0.414404 -0.848668
2005-02-18 08:15:47 51°13.678 2°55.882 14.1613 0.070957 0.414404 -0.848668
2005-02-18 08:15:52 51°13.682 2°55.873 14.1672 0.070957 0.414404 -0.848668
2005-02-18 08:15:57 51°13.686 2°55.864 14.1758 0.070957 0.414412 -0.848668
2005-02-18 08:16:02 51°13.689 2°55.856 14.1698 0.070957 0.414419 -0.814958
2005-02-18 08:16:07 51°13.693 2°55.846 14.1732 0.070957 0.414434 -0.848668
2005-02-18 08:16:12 51°13.696 2°55.837 14.1688 0.070957 0.414426 -0.814958
2005-02-18 08:16:17 51°13.7 2°55.826 14.1699 0.070957 0.414426 -0.814958
2005-02-18 08:16:22 51°13.703 2°55.818 14.1667 0.070957 0.414434 -0.814958
2005-02-18 08:16:27 51°13.706 2°55.808 14.1649 0.070957 0.414441 -0.848668
2005-02-18 08:16:32 51°13.708 2°55.799 14.1554 0.070957 0.414434 -0.882377
2005-02-18 08:16:36 51°13.71 2°55.791 14.1685 0.070957 0.414426 -0.848668
2005-02-18 08:16:42 51°13.712 2°55.782 14.1421 0.070957 0.414434 -0.814958
2005-02-18 08:16:47 51°13.714 2°55.772 14.1736 0.070957 0.414434 -0.814958
2005-02-18 08:16:52 51°13.716 2°55.765 14.1664 0.070957 0.414426 -0.848668
2005-02-18 08:16:56 51°13.717 2°55.758 14.0984 0.070957 0.414426 -0.848668
2005-02-18 08:17:02 51°13.719 2°55.751 14.1619 0.070957 0.414419 -0.848668
2005-02-18 08:17:06 51°13.72 2°55.746 14.1307 0.070957 0.414426 -0.848668
2005-02-18 08:17:11 51°13.721 2°55.741 14.1871 0.070957 0.414419 -0.848668
2005-02-18 08:17:16 51°13.722 2°55.737 14.2291 0.070957 0.414419 -0.848668
2005-02-18 08:17:21 51°13.722 2°55.735 14.2553 0.070957 0.414419 -0.848668
2005-02-18 08:17:27 51°13.723 2°55.735 14.2646 0.070957 0.414404 -0.848668
2005-02-18 08:17:31 51°13.724 2°55.735 14.2781 0.070957 0.414404 -0.882377
2005-02-18 08:17:37 51°13.725 2°55.737 14.2411 0.070957 0.414397 -0.848668
2005-02-18 08:17:41 51°13.726 2°55.738 14.1961 0.070957 0.414419 -0.882377
2005-02-18 08:17:46 51°13.728 2°55.74 14.0712 0.070957 0.414419 -0.882377
2005-02-18 08:17:51 51°13.729 2°55.741 14.0864 0.070957 0.414404 -0.882377
2005-02-18 08:17:56 51°13.73 2°55.741 14.1071 0.070957 0.414339 -0.848668
2005-02-18 08:18:02 51°13.73 2°55.74 14.0616 0.070957 0.41431 -0.814958
2005-02-18 08:18:07 51°13.73 2°55.739 14.0457 0.070957 0.414346 -0.814958
2005-02-18 08:18:12 51°13.73 2°55.738 14.1526 0.070957 0.414434 -0.848668
2005-02-18 08:18:17 51°13.729 2°55.737 14.1678 0.070957 0.414434 -0.848668
2005-02-18 08:18:22 51°13.728 2°55.734 14.2048 0.070957 0.414521 -0.882377
2005-02-18 08:18:26 51°13.726 2°55.733 14.1987 0.070957 0.414594 -0.848668
2005-02-18 08:18:32 51°13.725 2°55.73 14.195 0.070957 0.414609 -0.814958
2005-02-18 08:18:37 51°13.723 2°55.728 14.1674 0.070957 0.414579 -0.848668
2005-02-18 08:18:42 51°13.722 2°55.726 14.1814 0.070957 0.414521 -0.848668
2005-02-18 08:18:47 51°13.721 2°55.725 14.2107 0.070957 0.414521 -0.848668
2005-02-18 08:18:51 51°13.721 2°55.725 14.2469 0.070957 0.414434 -0.814958
2005-02-18 08:18:57 51°13.721 2°55.723 14.2729 0.070957 0.414375 -0.848668
2005-02-18 08:19:02 51°13.722 2°55.723 14.2902 0.070957 0.414353 -0.814958
2005-02-18 08:19:06 51°13.721 2°55.723 14.2987 0.070957 0.414361 -0.848668
2005-02-18 08:19:11 51°13.721 2°55.723 14.305 0.070957 0.414397 -0.848668
2005-02-18 08:19:17 51°13.729 2°55.722 14.3166 0.070957 0.414397 -0.848668
2005-02-18 08:19:22 51°13.732 2°55.72 14.3268 0.070957 0.414441 -0.848668
2005-02-18 08:19:27 51°13.735 2°55.718 14.3001 0.070957 0.414477 -0.848668
2005-02-18 08:19:32 51°13.739 2°55.716 14.287 0.070957 0.414485 -0.814958
2005-02-18 08:19:37 51°13.744 2°55.712 14.228 0.070957 0.414485 -0.848668
2005-02-18 08:19:41 51°13.748 2°55.708 14.1881 0.070957 0.414448 -0.814958
2005-02-18 08:19:47 51°13.754 2°55.702 14.1881 0.070957 0.414448 -0.814958
2005-02-18 08:19:52 51°13.757 2°55.699 14.1365 0.070957 0.414397 -0.848668
2005-02-18 08:19:56 51°13.764 2°55.692 14.0958 0.070957 0.414368 -0.848668
2005-02-18 08:20:02 51°13.771 2°55.685 14.0608 0.070957 0.414361 -0.814958
2005-02-18 08:20:07 51°13.778 2°55.678 14.021 0.070957 0.414383 -0.814958
2005-02-18 08:20:12 51°13.785 2°55.672 13.979 0.070957 0.414419 -0.848668
2005-02-18 08:20:16 51°13.791 2°55.665 13.9469 0.070957 0.414419 -0.848668
2005-02-18 08:20:22 51°13.8 2°55.658 13.924 0.070957 0.414455 -0.848668
2005-02-18 08:20:26 51°13.807 2°55.652 13.9021 0.070957 0.414477 -0.848668
2005-02-18 08:20:32 51°13.816 2°55.645 13.9143 0.070957 0.414485 -0.848668
2005-02-18 08:20:36 51°13.822 2°55.64 13.9245 0.070957 0.414463 -0.848668
2005-02-18 08:20:42 51°13.832 2°55.631 13.9248 0.070957 0.414448 -0.848668
2005-02-18 08:20:46 51°13.839 2°55.626 13.9153 0.070957 0.414448 -0.848668
2005-02-18 08:20:52 51°13.85 2°55.618 13.924 0.070957 0.414426 -0.882377
2005-02-18 08:20:56 51°13.858 2°55.612 13.9318 0.070957 0.414419 -0.848668
2005-02-18 08:21:02 51°13.868 2°55.605 13.91 0.070957 0.414426 -0.848668
2005-02-18 08:21:06 51°13.875 2°55.599 13.9489 0.070957 0.414463 -0.848668
2005-02-18 08:21:12 51°13.887 2°55.591 13.9437 0.070957 0.414485 -0.848668
2005-02-18 08:21:16 51°13.895 2°55.585 13.9687 0.070957 0.414485 -0.848668
2005-02-18 08:21:21 51°13.904 2°55.578 13.9691 0.070957 0.414514 -0.814958
2005-02-18 08:21:26 51°13.913 2°55.572 13.9774 0.070957 0.414521 -0.848668
2005-02-18 08:21:31 51°13.923 2°55.564 13.9892 0.070957 0.414514 -0.848668
2005-02-18 08:21:36 51°13.933 2°55.557 13.9922 0.070957 0.414506 -0.882377
2005-02-18 08:21:42 51°13.943 2°55.548 13.966 0.070957 0.414499 -0.814958
2005-02-18 08:21:46 51°13.95 2°55.543 13.9942 0.070957 0.414499 -0.814958
2005-02-18 08:21:52 51°13.962 2°55.534 13.9392 0.070957 0.414485 -0.848668
2005-02-18 08:21:56 51°13.971 2°55.528 13.9925 0.070957 0.414492 -0.848668
2005-02-18 08:22:01 51°13.98 2°55.521 14.0041 0.070957 0.414492 -0.848668
2005-02-18 08:22:07 51°13.991 2°55.512 14.0125 0.070957 0.414506 -0.848668
2005-02-18 08:22:11 51°14 2°55.506 14.0162 0.070957 0.414499 -0.882377
2005-02-18 08:22:17 51°14.01 2°55.498 14.0165 0.070957 0.414499 -0.882377
2005-02-18 08:22:21 51°14.019 2°55.492 14.0232 0.070957 0.414514 -0.814958
2005-02-18 08:22:26 51°14.028 2°55.485 14.037 0.070957 0.414521 -0.848668
2005-02-18 08:22:31 51°14.038 2°55.477 14.0406 0.070957 0.414514 -0.814958
2005-02-18 08:22:36 51°14.047 2°55.47 14.0483 0.070957 0.414528 -0.848668
2005-02-18 08:22:41 51°14.057 2°55.461 14.0485 0.070957 0.414543 -0.814958
2005-02-18 08:22:47 51°14.068 2°55.453 14.0494 0.070957 0.414543 -0.814958
2005-02-18 08:22:52 51°14.078 2°55.446 14.0446 0.070957 0.414543 -0.882377
2005-02-18 08:22:57 51°14.088 2°55.438 14.0668 0.070957 0.414543 -0.814958
2005-02-18 08:23:01 51°14.097 2°55.431 14.0705 0.070957 0.414543 -0.882377
2005-02-18 08:23:06 51°14.105 2°55.425 14.0686 0.070957 0.414543 -0.814958
2005-02-18 08:23:12 51°14.117 2°55.416 14.0703 0.070957 0.414543 -0.848668
2005-02-18 08:23:16 51°14.126 2°55.409 14.073 0.070957 0.414543 -0.848668
2005-02-18 08:23:21 51°14.136 2°55.401 14.0833 0.070957 0.41455 -0.814958
2005-02-18 08:23:26 51°14.144 2°55.393 14.1889 0.070957 0.414565 -0.882377
2005-02-18 08:23:32 51°14.156 2°55.383 14.2078 0.070957 0.414565 -0.882377
2005-02-18 08:23:37 51°14.166 2°55.374 14.2103 0.070957 0.414579 -0.848668
2005-02-18 08:23:42 51°14.176 2°55.364 14.1992 0.070957 0.414587 -0.814958
2005-02-18 08:23:46 51°14.184 2°55.355 14.1927 0.070957 0.414587 -0.814958
2005-02-18 08:23:52 51°14.197 2°55.341 14.1907 0.070957 0.414601 -0.814958
2005-02-18 08:23:56 51°14.205 2°55.332 14.1913 0.070957 0.414601 -0.848668
2005-02-18 08:24:01 51°14.216 2°55.318 14.1932 0.070957 0.414609 -0.814958
2005-02-18 08:24:06 51°14.226 2°55.305 14.1699 0.070957 0.414609 -0.848668
2005-02-18 08:24:12 51°14.236 2°55.29 14.1606 0.070957 0.414623 -0.882377
2005-02-18 08:24:16 51°14.244 2°55.276 14.0732 0.070957 0.414623 -0.882377
2005-02-18 08:24:22 51°14.255 2°55.26 14.0658 0.070957 0.414645 -0.848668
2005-02-18 08:24:25 51°14.261 2°55.249 14.1862 0.070957 0.414638 -0.848668
2005-02-18 08:24:32 51°14.273 2°55.229 14.097 0.070957 0.414638 -0.848668
2005-02-18 08:24:37 51°14.282 2°55.213 13.9814 0.070957 0.414652 -0.848668
2005-02-18 08:24:41 51°14.29 2°55.198 14.082 0.070957 0.41466 -0.882377
2005-02-18 08:24:47 51°14.3 2°55.18 14.0236 0.070957 0.41466 -0.882377
2005-02-18 08:24:52 51°14.308 2°55.164 14.0286 0.070957 0.41466 -0.848668
2005-02-18 08:24:56 51°14.316 2°55.148 14.0024 0.070957 0.414667 -0.848668
2005-02-18 08:25:02 51°14.326 2°55.13 13.9806 0.070957 0.414682 -0.848668
2005-02-18 08:25:05 51°14.332 2°55.118 13.9751 0.070957 0.414689 -0.814958
2005-02-18 08:25:12 51°14.343 2°55.096 13.9723 0.070957 0.414711 -0.848668
2005-02-18 08:25:16 51°14.351 2°55.081 13.9396 0.070957 0.414711 -0.848668
2005-02-18 08:25:21 51°14.36 2°55.064 13.9586 0.070957 0.414718 -0.848668
2005-02-18 08:25:27 51°14.37 2°55.046 14.0352 0.070957 0.414711 -0.848668
2005-02-18 08:25:32 51°14.379 2°55.03 14.0535 0.070957 0.414718 -0.848668
2005-02-18 08:25:37 51°14.388 2°55.013 14.1343 0.070957 0.414711 -0.848668
2005-02-18 08:25:42 51°14.397 2°54.996 14.1535 0.070957 0.414711 -0.848668
2005-02-18 08:25:47 51°14.406 2°54.98 14.102 0.070957 0.414711 -0.848668
2005-02-18 08:25:52 51°14.415 2°54.963 14.0993 0.070957 0.414718 -0.882377
2005-02-18 08:25:57 51°14.424 2°54.946 14.1245 0.070957 0.414733 -0.848668
2005-02-18 08:26:02 51°14.432 2°54.929 14.2448 0.070957 0.41474 -0.814958
2005-02-18 08:26:06 51°14.439 2°54.915 14.2612 0.070957 0.414769 -0.848668
2005-02-18 08:26:12 51°14.448 2°54.894 14.301 0.070957 0.414776 -0.848668
2005-02-18 08:26:17 51°14.456 2°54.876 14.2885 0.070957 0.414776 -0.848668
2005-02-18 08:26:21 51°14.461 2°54.859 14.247 0.070957 0.414798 -0.882377
2005-02-18 08:26:25 51°14.466 2°54.844 14.2108 0.070957 0.41474 -0.848668
2005-02-18 08:26:32 51°14.473 2°54.82 14.1977 0.070957 0.414565 -0.848668
2005-02-18 08:26:36 51°14.477 2°54.803 14.1744 0.070957 0.41447 -0.848668
2005-02-18 08:26:41 51°14.482 2°54.784 14.1536 0.070957 0.414506 -0.848668
2005-02-18 08:26:46 51°14.485 2°54.766 14.164 0.070957 0.414506 -0.848668
2005-02-18 08:26:52 51°14.49 2°54.743 14.167 0.070957 0.41463 -0.814958
2005-02-18 08:26:57 51°14.493 2°54.723 14.1822 0.070957 0.414806 -0.814958
2005-02-18 08:27:01 51°14.495 2°54.705 14.1559 0.070957 0.414974 -0.848668
2005-02-18 08:27:07 51°14.497 2°54.683 14.1514 0.070957 0.415054 -0.848668
2005-02-18 08:27:12 51°14.499 2°54.663 14.1743 0.070957 0.41504 -0.848668
2005-02-18 08:27:16 51°14.501 2°54.645 14.1544 0.070957 0.41504 -0.848668
2005-02-18 08:27:22 51°14.502 2°54.623 14.149 0.070957 0.414966 -0.848668
2005-02-18 08:27:26 51°14.503 2°54.605 14.0983 0.070957 0.414842 -0.814958
2005-02-18 08:27:32 51°14.504 2°54.583 13.9854 0.070957 0.414703 -0.814958
2005-02-18 08:27:37 51°14.505 2°54.564 13.9799 0.070957 0.414638 -0.814958
2005-02-18 08:27:42 51°14.506 2°54.544 14.0378 0.070853 0.414001 -0.848668
2005-02-18 08:27:47 51°14.507 2°54.524 14.0131 0.070853 0.414001 -0.848668
2005-02-18 08:27:52 51°14.508 2°54.504 14.0841 0.070853 0.41406 -0.848668
2005-02-18 08:27:57 51°14.509 2°54.484 14.199 0.070853 0.414125 -0.848668
2005-02-18 08:28:01 51°14.51 2°54.466 14.2701 0.070853 0.414206 -0.882377
2005-02-18 08:28:05 51°14.51 2°54.451 14.2599 0.070957 0.414879 -0.848668
2005-02-18 08:28:12 51°14.509 2°54.425 14.3014 0.070853 0.414264 -0.848668
2005-02-18 08:28:17 51°14.507 2°54.407 14.2448 0.070853 0.414264 -0.848668
2005-02-18 08:28:22 51°14.505 2°54.388 14.1609 0.070853 0.414242 -0.848668
2005-02-18 08:28:27 51°14.502 2°54.37 14.1642 0.070853 0.414213 -0.848668
2005-02-18 08:28:32 51°14.499 2°54.351 14.0888 0.070853 0.414191 -0.848668
2005-02-18 08:28:37 51°14.495 2°54.333 14.1411 0.070853 0.414162 -0.848668
2005-02-18 08:28:42 51°14.492 2°54.315 14.1278 0.070853 0.414169 -0.848668
2005-02-18 08:28:46 51°14.489 2°54.301 14.201 0.070853 0.414169 -0.848668
2005-02-18 08:28:52 51°14.483 2°54.281 14.1818 0.070853 0.414184 -0.848668
2005-02-18 08:28:57 51°14.478 2°54.264 14.252 0.070853 0.414213 -0.848668
2005-02-18 08:29:02 51°14.473 2°54.247 14.1677 0.070853 0.414227 -0.882377
2005-02-18 08:29:06 51°14.468 2°54.232 14.0759 0.070853 0.414249 -0.882377
2005-02-18 08:29:12 51°14.461 2°54.214 14.0377 0.070853 0.414249 -0.848668
2005-02-18 08:29:17 51°14.455 2°54.198 14.0287 0.070853 0.414249 -0.848668
2005-02-18 08:29:22 51°14.45 2°54.182 14.03 0.070853 0.414235 -0.848668
2005-02-18 08:29:26 51°14.444 2°54.167 13.9674 0.070853 0.414227 -0.814958
2005-02-18 08:29:32 51°14.437 2°54.149 14.0878 0.070853 0.41422 -0.848668
2005-02-18 08:29:36 51°14.432 2°54.135 14.0928 0.070853 0.41422 -0.882377
2005-02-18 08:29:42 51°14.425 2°54.117 14.2299 0.070853 0.414227 -0.848668
2005-02-18 08:29:47 51°14.419 2°54.101 14.1861 0.070853 0.414227 -0.848668
2005-02-18 08:29:52 51°14.412 2°54.086 14.2218 0.070853 0.414249 -0.848668
2005-02-18 08:29:57 51°14.405 2°54.071 14.1842 0.070853 0.414264 -0.848668
2005-02-18 08:30:02 51°14.398 2°54.056 14.1672 0.070853 0.414279 -0.848668
2005-02-18 08:30:07 51°14.39 2°54.042 14.1298 0.070853 0.414286 -0.848668
2005-02-18 08:30:12 51°14.382 2°54.028 14.0245 0.070853 0.414293 -0.848668
2005-02-18 08:30:17 51°14.375 2°54.014 14.0462 0.070853 0.414293 -0.848668
2005-02-18 08:30:21 51°14.368 2°54.001 13.9806 0.070853 0.414279 -0.848668
2005-02-18 08:30:26 51°14.361 2°53.986 13.9647 0.070853 0.414286 -0.848668
2005-02-18 08:30:32 51°14.353 2°53.97 13.9344 0.070853 0.414286 -0.848668
2005-02-18 08:30:37 51°14.346 2°53.955 14.0245 0.070853 0.414293 -0.814958
2005-02-18 08:30:42 51°14.34 2°53.942 14.0549 0.070853 0.4143 -0.848668
2005-02-18 08:30:46 51°14.336 2°53.93 14.1664 0.070853 0.4143 -0.848668
2005-02-18 08:30:52 51°14.33 2°53.917 14.1403 0.070853 0.414315 -0.882377
2005-02-18 08:30:57 51°14.325 2°53.905 14.1746 0.070853 0.41433 -0.848668
2005-02-18 08:31:01 51°14.322 2°53.896 14.1842 0.070853 0.414337 -0.848668
2005-02-18 08:31:06 51°14.318 2°53.887 14.2051 0.070853 0.414351 -0.848668
2005-02-18 08:31:12 51°14.313 2°53.876 14.2296 0.070853 0.414366 -0.814958
2005-02-18 08:31:16 51°14.309 2°53.869 14.2231 0.070853 0.414366 -0.814958
2005-02-18 08:31:21 51°14.305 2°53.86 14.2374 0.070853 0.414373 -0.814958
2005-02-18 08:31:27 51°14.301 2°53.853 14.2436 0.070853 0.414381 -0.848668
2005-02-18 08:31:32 51°14.297 2°53.846 14.2283 0.070853 0.414388 -0.848668
2005-02-18 08:31:36 51°14.294 2°53.841 14.2061 0.070853 0.414395 -0.848668
2005-02-18 08:31:42 51°14.289 2°53.835 14.1916 0.070853 0.414403 -0.848668
2005-02-18 08:31:46 51°14.287 2°53.831 14.216 0.070853 0.414403 -0.848668
2005-02-18 08:31:51 51°14.283 2°53.827 14.1677 0.070853 0.414395 -0.848668
2005-02-18 08:31:57 51°14.279 2°53.823 14.2135 0.070853 0.414403 -0.848668
2005-02-18 08:32:01 51°14.277 2°53.819 14.2012 0.070853 0.414403 -0.848668
2005-02-18 08:32:07 51°14.273 2°53.816 14.1756 0.070853 0.41441 -0.848668
2005-02-18 08:32:12 51°14.27 2°53.813 14.184 0.070853 0.41441 -0.814958
2005-02-18 08:32:16 51°14.268 2°53.811 14.1903 0.070853 0.41441 -0.814958
2005-02-18 08:32:22 51°14.265 2°53.808 14.1842 0.070853 0.41441 -0.848668
2005-02-18 08:32:26 51°14.263 2°53.807 14.1949 0.070853 0.414425 -0.882377
2005-02-18 08:32:32 51°14.26 2°53.805 14.2029 0.070853 0.414432 -0.848668
2005-02-18 08:32:36 51°14.258 2°53.804 14.1964 0.070853 0.414439 -0.848668
2005-02-18 08:32:42 51°14.255 2°53.802 14.1976 0.070853 0.414439 -0.848668
2005-02-18 08:32:47 51°14.253 2°53.801 14.2108 0.070853 0.414439 -0.848668
2005-02-18 08:32:52 51°14.25 2°53.8 14.1387 0.070853 0.414454 -0.882377
2005-02-18 08:32:57 51°14.248 2°53.799 14.1111 0.070853 0.414454 -0.882377
2005-02-18 08:33:02 51°14.246 2°53.799 14.0778 0.070853 0.414461 -0.848668
2005-02-18 08:33:06 51°14.245 2°53.798 14.1629 0.070853 0.414454 -0.848668
2005-02-18 08:33:11 51°14.243 2°53.797 14.1269 0.070853 0.414439 -0.814958
2005-02-18 08:33:17 51°14.241 2°53.797 14.1117 0.070853 0.414439 -0.814958
2005-02-18 08:33:21 51°14.239 2°53.797 14.1634 0.070853 0.414425 -0.848668
2005-02-18 08:33:25 51°14.238 2°53.797 14.081 0.070853 0.414417 -0.848668
2005-02-18 08:33:32 51°14.236 2°53.797 14.1022 0.070853 0.41441 -0.814958
2005-02-18 08:33:36 51°14.235 2°53.798 14.0813 0.070853 0.414432 -0.882377
2005-02-18 08:33:42 51°14.233 2°53.798 14.0107 0.070853 0.414454 -0.848668
2005-02-18 08:33:46 51°14.232 2°53.798 14.0725 0.070853 0.414454 -0.848668
2005-02-18 08:33:52 51°14.231 2°53.798 14.0311 0.070853 0.414476 -0.848668
2005-02-18 08:33:56 51°14.23 2°53.798 13.9927 0.070853 0.414512 -0.848668
2005-02-18 08:34:02 51°14.229 2°53.798 14.0015 0.070853 0.414519 -0.848668
2005-02-18 08:34:06 51°14.228 2°53.799 13.9794 0.070853 0.414527 -0.848668
2005-02-18 08:34:12 51°14.227 2°53.799 14.0438 0.070853 0.414527 -0.848668
2005-02-18 08:34:16 51°14.226 2°53.8 13.9892 0.070853 0.414527 -0.848668
2005-02-18 08:34:21 51°14.226 2°53.8 14.0193 0.070853 0.414527 -0.848668
2005-02-18 08:34:26 51°14.225 2°53.801 14.0321 0.070853 0.414527 -0.848668
2005-02-18 08:34:32 51°14.224 2°53.801 14.0186 0.070853 0.414512 -0.882377
2005-02-18 08:34:37 51°14.223 2°53.802 14.0281 0.070853 0.414512 -0.848668
2005-02-18 08:34:41 51°14.223 2°53.802 13.9846 0.070853 0.414498 -0.848668
2005-02-18 08:34:46 51°14.223 2°53.802 13.9946 0.070853 0.414498 -0.848668
2005-02-18 08:34:52 51°14.222 2°53.803 13.9557 0.070853 0.414512 -0.848668
2005-02-18 08:34:57 51°14.222 2°53.804 13.9317 0.070749 0.413897 -0.882377
2005-02-18 08:35:01 51°14.222 2°53.804 13.9114 0.070749 0.413904 -0.848668
2005-02-18 08:35:07 51°14.222 2°53.805 13.9601 0.070853 0.414563 -0.848668
2005-02-18 08:35:12 51°14.222 2°53.805 13.9623 0.070853 0.414585 -0.848668
2005-02-18 08:35:17 51°14.222 2°53.806 14.0344 0.070853 0.414585 -0.848668
2005-02-18 08:35:21 51°14.222 2°53.807 13.9438 0.070853 0.4146 -0.848668
2005-02-18 08:35:26 51°14.222 2°53.807 14.0146 0.070853 0.414614 -0.848668
2005-02-18 08:35:32 51°14.222 2°53.808 14.0042 0.070853 0.414629 -0.848668
2005-02-18 08:35:36 51°14.222 2°53.809 13.9767 0.070853 0.414651 -0.848668
2005-02-18 08:35:41 51°14.222 2°53.809 13.9782 0.070853 0.414644 -0.882377
2005-02-18 08:35:46 51°14.223 2°53.811 13.973 0.070853 0.414644 -0.882377
2005-02-18 08:35:52 51°14.223 2°53.811 14.0173 0.070749 0.414021 -0.848668
2005-02-18 08:35:57 51°14.223 2°53.812 14.0432 0.070853 0.414636 -0.848668
2005-02-18 08:36:01 51°14.223 2°53.812 13.9725 0.070853 0.414644 -0.848668
2005-02-18 08:36:07 51°14.223 2°53.812 14.0205 0.070749 0.414014 -0.848668
2005-02-18 08:36:12 51°14.223 2°53.811 14.046 0.070749 0.414021 -0.848668
2005-02-18 08:36:16 51°14.223 2°53.81 14.0345 0.070749 0.414021 -0.848668
2005-02-18 08:36:21 51°14.222 2°53.808 14.0744 0.070853 0.414666 -0.848668
2005-02-18 08:36:27 51°14.221 2°53.805 14.0543 0.070749 0.414043 -0.882377
2005-02-18 08:36:31 51°14.219 2°53.801 14.0859 0.070749 0.414058 -0.848668
2005-02-18 08:36:36 51°14.217 2°53.795 14.0536 0.070749 0.414065 -0.814958
2005-02-18 08:36:41 51°14.214 2°53.788 14.0752 0.070749 0.414079 -0.882377
2005-02-18 08:36:47 51°14.209 2°53.778 13.9475 0.070749 0.414079 -0.882377
2005-02-18 08:36:52 51°14.205 2°53.768 13.9826 0.070749 0.414094 -0.848668
2005-02-18 08:36:56 51°14.201 2°53.757 13.9119 0.070749 0.414094 -0.848668
2005-02-18 08:37:01 51°14.196 2°53.744 13.9269 0.070749 0.414109 -0.848668
2005-02-18 08:37:06 51°14.192 2°53.732 13.8991 0.070749 0.414116 -0.848668
2005-02-18 08:37:12 51°14.185 2°53.713 13.87 0.070749 0.414138 -0.848668
2005-02-18 08:37:16 51°14.18 2°53.699 13.8302 0.070749 0.414138 -0.848668
2005-02-18 08:37:21 51°14.175 2°53.682 13.8607 0.070749 0.414153 -0.848668
2005-02-18 08:37:27 51°14.168 2°53.663 13.9008 0.070749 0.414153 -0.814958
2005-02-18 08:37:32 51°14.162 2°53.645 13.9632 0.070749 0.414167 -0.882377
2005-02-18 08:37:36 51°14.157 2°53.629 13.9433 0.070749 0.414182 -0.848668
2005-02-18 08:37:41 51°14.15 2°53.611 13.9194 0.070749 0.414182 -0.882377
2005-02-18 08:37:47 51°14.142 2°53.591 13.9444 0.070749 0.414182 -0.882377
2005-02-18 08:37:52 51°14.135 2°53.572 13.8459 0.070749 0.414196 -0.848668
2005-02-18 08:37:56 51°14.128 2°53.555 13.9153 0.070749 0.414218 -0.848668
2005-02-18 08:38:02 51°14.12 2°53.534 13.8563 0.070749 0.414226 -0.848668
2005-02-18 08:38:06 51°14.113 2°53.517 13.8123 0.070749 0.414233 -0.848668
2005-02-18 08:38:12 51°14.104 2°53.495 13.8302 0.070749 0.414248 -0.848668
2005-02-18 08:38:16 51°14.097 2°53.479 13.7899 0.070749 0.414248 -0.848668
2005-02-18 08:38:21 51°14.089 2°53.457 13.8294 0.070749 0.414248 -0.848668
2005-02-18 08:38:26 51°14.081 2°53.438 13.8469 0.070749 0.414255 -0.848668
2005-02-18 08:38:32 51°14.071 2°53.413 13.9029 0.070749 0.414262 -0.848668
2005-02-18 08:38:36 51°14.065 2°53.397 13.8167 0.070749 0.414269 -0.848668
2005-02-18 08:38:41 51°14.056 2°53.374 13.9081 0.070749 0.414269 -0.848668
2005-02-18 08:38:47 51°14.046 2°53.351 13.8573 0.070749 0.414269 -0.848668
2005-02-18 08:38:52 51°14.037 2°53.329 13.8745 0.070749 0.414277 -0.882377
2005-02-18 08:38:56 51°14.03 2°53.312 13.8773 0.070749 0.414284 -0.848668
2005-02-18 08:39:01 51°14.021 2°53.287 13.94 0.070749 0.414284 -0.848668
2005-02-18 08:39:07 51°14.011 2°53.263 13.9702 0.070749 0.414299 -0.848668
2005-02-18 08:39:12 51°14.002 2°53.241 13.9219 0.070749 0.414299 -0.848668
2005-02-18 08:39:17 51°13.993 2°53.218 13.9404 0.070749 0.414299 -0.848668
2005-02-18 08:39:22 51°13.984 2°53.196 13.9652 0.070749 0.414321 -0.848668
2005-02-18 08:39:26 51°13.977 2°53.178 13.9701 0.070749 0.414321 -0.848668
2005-02-18 08:39:32 51°13.966 2°53.151 13.8693 0.070749 0.414328 -0.848668
2005-02-18 08:39:37 51°13.957 2°53.128 13.9305 0.070749 0.414343 -0.848668
2005-02-18 08:39:42 51°13.948 2°53.105 13.9388 0.070749 0.414343 -0.848668
2005-02-18 08:39:46 51°13.94 2°53.084 14.0204 0.070749 0.414343 -0.848668
2005-02-18 08:39:52 51°13.93 2°53.06 13.9544 0.070749 0.414343 -0.848668
2005-02-18 08:39:56 51°13.923 2°53.041 13.9857 0.070749 0.414372 -0.848668
2005-02-18 08:40:02 51°13.912 2°53.014 13.9768 0.070749 0.414365 -0.848668
2005-02-18 08:40:07 51°13.903 2°52.991 14.0162 0.070749 0.414372 -0.882377
2005-02-18 08:40:12 51°13.894 2°52.968 13.9679 0.070749 0.414379 -0.848668
2005-02-18 08:40:17 51°13.885 2°52.945 13.9774 0.070749 0.414379 -0.848668
2005-02-18 08:40:21 51°13.877 2°52.925 13.9602 0.070749 0.414386 -0.848668
2005-02-18 08:40:27 51°13.867 2°52.899 13.9942 0.070749 0.414394 -0.882377
2005-02-18 08:40:32 51°13.858 2°52.877 13.9254 0.070749 0.414394 -0.848668
2005-02-18 08:40:36 51°13.849 2°52.856 13.9873 0.070749 0.414401 -0.848668
2005-02-18 08:40:42 51°13.839 2°52.831 13.92 0.070749 0.414401 -0.848668
2005-02-18 08:40:45 51°13.833 2°52.815 14.0024 0.070749 0.414401 -0.848668
2005-02-18 08:40:51 51°13.822 2°52.787 13.8492 0.070749 0.414408 -0.848668
2005-02-18 08:40:56 51°13.814 2°52.766 14.0073 0.070749 0.414416 -0.848668
2005-02-18 08:41:02 51°13.803 2°52.739 13.8951 0.070749 0.414408 -0.848668
2005-02-18 08:41:06 51°13.795 2°52.718 14.0175 0.070749 0.414416 -0.848668
2005-02-18 08:41:12 51°13.785 2°52.693 13.9232 0.070749 0.414408 -0.848668
2005-02-18 08:41:16 51°13.777 2°52.672 14.0141 0.070749 0.414408 -0.848668
2005-02-18 08:41:21 51°13.768 2°52.649 13.9771 0.070749 0.414408 -0.848668
2005-02-18 08:41:27 51°13.757 2°52.621 14.022 0.070749 0.414416 -0.848668
2005-02-18 08:41:32 51°13.749 2°52.601 13.9666 0.070749 0.414416 -0.848668
2005-02-18 08:41:36 51°13.74 2°52.58 14.0231 0.070749 0.414423 -0.848668
2005-02-18 08:41:41 51°13.731 2°52.557 13.8763 0.070749 0.414423 -0.848668
2005-02-18 08:41:47 51°13.721 2°52.532 14.0065 0.070749 0.414423 -0.848668
2005-02-18 08:41:52 51°13.712 2°52.509 13.9214 0.070749 0.41443 -0.848668
2005-02-18 08:41:56 51°13.704 2°52.491 14.0053 0.070749 0.414423 -0.814958
2005-02-18 08:42:01 51°13.695 2°52.466 14.0092 0.070749 0.414423 -0.848668
2005-02-18 08:42:05 51°13.687 2°52.447 13.9636 0.070749 0.41443 -0.848668
2005-02-18 08:42:12 51°13.675 2°52.417 14.0085 0.070749 0.414423 -0.848668
2005-02-18 08:42:16 51°13.667 2°52.397 13.9369 0.070749 0.414423 -0.848668
2005-02-18 08:42:22 51°13.657 2°52.371 14.0452 0.070749 0.414438 -0.848668
2005-02-18 08:42:26 51°13.65 2°52.353 13.9635 0.070749 0.414438 -0.848668
2005-02-18 08:42:32 51°13.638 2°52.326 13.9513 0.070749 0.414445 -0.848668
2005-02-18 08:42:37 51°13.63 2°52.302 13.993 0.070749 0.414445 -0.848668
2005-02-18 08:42:41 51°13.622 2°52.281 14.0023 0.070749 0.414452 -0.848668
2005-02-18 08:42:46 51°13.613 2°52.258 14.0274 0.070749 0.414452 -0.848668
2005-02-18 08:42:52 51°13.602 2°52.233 13.9855 0.070749 0.41446 -0.882377
2005-02-18 08:42:56 51°13.594 2°52.213 13.9914 0.070749 0.41446 -0.848668
2005-02-18 08:43:02 51°13.584 2°52.188 13.9854 0.070749 0.414467 -0.848668
2005-02-18 08:43:06 51°13.577 2°52.169 14.0069 0.070749 0.414467 -0.848668
2005-02-18 08:43:12 51°13.566 2°52.142 14.0081 0.070749 0.414474 -0.814958
2005-02-18 08:43:16 51°13.557 2°52.121 14.0264 0.070749 0.414474 -0.814958
2005-02-18 08:43:21 51°13.548 2°52.098 14.0148 0.070749 0.414482 -0.848668
2005-02-18 08:43:27 51°13.538 2°52.073 14.0338 0.070749 0.414489 -0.848668
2005-02-18 08:43:32 51°13.529 2°52.05 13.984 0.070749 0.414511 -0.814958
2005-02-18 08:43:36 51°13.52 2°52.029 13.9919 0.070749 0.414511 -0.848668
2005-02-18 08:43:42 51°13.51 2°52.004 14.0286 0.070749 0.414518 -0.882377
2005-02-18 08:43:45 51°13.504 2°51.988 13.9771 0.070749 0.414518 -0.882377
2005-02-18 08:43:52 51°13.492 2°51.957 14.0303 0.070749 0.41454 -0.882377
2005-02-18 08:43:57 51°13.483 2°51.934 13.9866 0.070749 0.41454 -0.848668
2005-02-18 08:44:01 51°13.475 2°51.913 14.0294 0.070645 0.413917 -0.848668
2005-02-18 08:44:07 51°13.465 2°51.888 14.0133 0.070749 0.414569 -0.848668
2005-02-18 08:44:12 51°13.456 2°51.864 14.0744 0.070749 0.414569 -0.848668
2005-02-18 08:44:17 51°13.447 2°51.841 14.0151 0.070749 0.414569 -0.848668
2005-02-18 08:44:21 51°13.439 2°51.821 14.0096 0.070645 0.413953 -0.848668
2005-02-18 08:44:27 51°13.429 2°51.795 14.0142 0.070749 0.414606 -0.814958
2005-02-18 08:44:32 51°13.42 2°51.772 14.0047 0.070645 0.413983 -0.848668
2005-02-18 08:44:36 51°13.412 2°51.751 13.9983 0.070749 0.414635 -0.848668
2005-02-18 08:44:41 51°13.402 2°51.728 14.033 0.070749 0.414635 -0.848668
2005-02-18 08:44:47 51°13.393 2°51.702 14.0608 0.070749 0.414635 -0.848668
2005-02-18 08:44:52 51°13.384 2°51.679 14.0321 0.070749 0.414657 -0.848668
2005-02-18 08:44:56 51°13.376 2°51.66 14.0607 0.070749 0.414665 -0.814958
2005-02-18 08:45:02 51°13.366 2°51.633 14.059 0.070645 0.414048 -0.848668
2005-02-18 08:45:07 51°13.356 2°51.609 14.0068 0.070749 0.414694 -0.848668
2005-02-18 08:45:12 51°13.347 2°51.586 13.9859 0.070645 0.414085 -0.848668
2005-02-18 08:45:16 51°13.339 2°51.565 13.9819 0.070645 0.414085 -0.848668
2005-02-18 08:45:22 51°13.33 2°51.54 14.0058 0.070749 0.414723 -0.848668
2005-02-18 08:45:26 51°13.323 2°51.521 14.0353 0.070645 0.4141 -0.848668
2005-02-18 08:45:31 51°13.314 2°51.494 14.02 0.070645 0.414114 -0.848668
2005-02-18 08:45:36 51°13.306 2°51.473 14.0377 0.070749 0.41476 -0.848668
2005-02-18 08:45:42 51°13.296 2°51.444 14.0338 0.070645 0.414136 -0.848668
2005-02-18 08:45:46 51°13.289 2°51.426 14.0445 0.070645 0.414136 -0.848668
2005-02-18 08:45:52 51°13.279 2°51.397 14.0594 0.070645 0.414151 -0.848668
2005-02-18 08:45:56 51°13.271 2°51.376 14.0413 0.070645 0.414158 -0.848668
2005-02-18 08:46:01 51°13.263 2°51.352 14.0948 0.070645 0.414165 -0.848668
2005-02-18 08:46:06 51°13.254 2°51.328 14.0317 0.070645 0.414173 -0.848668
2005-02-18 08:46:12 51°13.245 2°51.302 14.108 0.070645 0.41418 -0.848668
2005-02-18 08:46:17 51°13.236 2°51.279 14.081 0.070645 0.41418 -0.848668
2005-02-18 08:46:22 51°13.228 2°51.254 14.0717 0.070645 0.414187 -0.848668
2005-02-18 08:46:27 51°13.219 2°51.23 14.019 0.070645 0.414187 -0.848668
2005-02-18 08:46:32 51°13.21 2°51.207 14.0426 0.070645 0.414195 -0.848668
2005-02-18 08:46:37 51°13.202 2°51.183 14.0351 0.070645 0.414202 -0.848668
2005-02-18 08:46:41 51°13.194 2°51.162 14.0068 0.070645 0.414202 -0.814958
2005-02-18 08:46:46 51°13.186 2°51.141 14.0649 0.070645 0.414202 -0.814958
2005-02-18 08:46:52 51°13.176 2°51.112 14.0483 0.070645 0.414202 -0.848668
2005-02-18 08:46:57 51°13.167 2°51.089 14.0841 0.070645 0.414217 -0.848668
2005-02-18 08:47:01 51°13.159 2°51.067 14.093 0.070645 0.414209 -0.848668
2005-02-18 08:47:07 51°13.15 2°51.041 14.0487 0.070645 0.414217 -0.848668
2005-02-18 08:47:12 51°13.142 2°51.017 14.0733 0.070645 0.414217 -0.814958
2005-02-18 08:47:16 51°13.134 2°50.996 14.0735 0.070645 0.414217 -0.814958
2005-02-18 08:47:21 51°13.126 2°50.972 14.0804 0.070645 0.414224 -0.848668
2005-02-18 08:47:26 51°13.118 2°50.95 14.0713 0.070645 0.414224 -0.848668
2005-02-18 08:47:32 51°13.108 2°50.922 14.0942 0.070645 0.414231 -0.848668
2005-02-18 08:47:36 51°13.1 2°50.9 14.0187 0.070645 0.414231 -0.882377
2005-02-18 08:47:42 51°13.091 2°50.874 14.1012 0.070645 0.414231 -0.848668
2005-02-18 08:47:46 51°13.084 2°50.855 14.0701 0.070645 0.414231 -0.848668
2005-02-18 08:47:52 51°13.074 2°50.827 14.1063 0.070645 0.414246 -0.848668
2005-02-18 08:47:56 51°13.067 2°50.808 14.0855 0.070645 0.414239 -0.848668
2005-02-18 08:48:02 51°13.057 2°50.779 14.1196 0.070645 0.414246 -0.814958
2005-02-18 08:48:06 51°13.05 2°50.76 14.0981 0.070645 0.414261 -0.848668
2005-02-18 08:48:12 51°13.04 2°50.732 14.1004 0.070645 0.414261 -0.848668
2005-02-18 08:48:16 51°13.032 2°50.711 14.0634 0.070645 0.414261 -0.848668
2005-02-18 08:48:22 51°13.023 2°50.684 14.0557 0.070645 0.414275 -0.848668
2005-02-18 08:48:27 51°13.014 2°50.661 14.0875 0.070645 0.414275 -0.848668
2005-02-18 08:48:32 51°13.006 2°50.637 14.053 0.070645 0.414275 -0.848668
2005-02-18 08:48:37 51°12.998 2°50.612 14.1127 0.070645 0.414275 -0.882377
2005-02-18 08:48:41 51°12.99 2°50.591 14.1025 0.070645 0.414283 -0.848668
2005-02-18 08:48:46 51°12.983 2°50.57 14.0909 0.070645 0.414283 -0.848668
2005-02-18 08:48:51 51°12.973 2°50.544 14.0545 0.070645 0.41429 -0.848668
2005-02-18 08:48:56 51°12.965 2°50.52 14.1233 0.070645 0.414305 -0.814958
2005-02-18 08:49:02 51°12.955 2°50.494 14.1133 0.070645 0.414312 -0.848668
2005-02-18 08:49:07 51°12.947 2°50.471 14.099 0.070645 0.414312 -0.814958
2005-02-18 08:49:11 51°12.939 2°50.45 14.0807 0.070645 0.414319 -0.848668
2005-02-18 08:49:17 51°12.929 2°50.423 14.0673 0.070645 0.414319 -0.848668
2005-02-18 08:49:21 51°12.922 2°50.402 14.1171 0.070645 0.414327 -0.814958
2005-02-18 08:49:25 51°12.915 2°50.383 14.0506 0.070645 0.414334 -0.848668
2005-02-18 08:49:32 51°12.904 2°50.352 14.1527 0.070645 0.414341 -0.848668
2005-02-18 08:49:36 51°12.897 2°50.331 14.1158 0.070645 0.414349 -0.848668
2005-02-18 08:49:42 51°12.887 2°50.305 14.108 0.070645 0.414349 -0.848668
2005-02-18 08:49:47 51°12.879 2°50.281 14.0933 0.070645 0.414349 -0.848668
2005-02-18 08:49:51 51°12.871 2°50.26 14.1062 0.070645 0.414363 -0.848668
2005-02-18 08:49:57 51°12.862 2°50.234 14.1083 0.070645 0.414371 -0.814958
2005-02-18 08:50:01 51°12.854 2°50.213 14.1057 0.070645 0.414378 -0.848668
2005-02-18 08:50:07 51°12.845 2°50.186 14.1011 0.070645 0.414385 -0.848668
2005-02-18 08:50:12 51°12.837 2°50.163 14.1156 0.070645 0.414385 -0.848668
2005-02-18 08:50:16 51°12.83 2°50.144 14.1237 0.070645 0.414385 -0.848668
2005-02-18 08:50:21 51°12.821 2°50.118 14.1173 0.070645 0.414393 -0.814958
2005-02-18 08:50:27 51°12.811 2°50.092 14.1396 0.070645 0.414407 -0.814958
2005-02-18 08:50:32 51°12.803 2°50.068 14.1615 0.070645 0.414407 -0.848668
2005-02-18 08:50:36 51°12.795 2°50.047 14.1193 0.070645 0.414415 -0.814958
2005-02-18 08:50:41 51°12.787 2°50.023 14.1107 0.070645 0.414415 -0.848668
2005-02-18 08:50:46 51°12.778 2°49.999 14.0611 0.070645 0.414415 -0.848668
2005-02-18 08:50:52 51°12.769 2°49.974 14.0499 0.070645 0.414429 -0.814958
2005-02-18 08:50:57 51°12.76 2°49.95 14.057 0.070645 0.414429 -0.882377
2005-02-18 08:51:01 51°12.753 2°49.928 14.097 0.070645 0.414437 -0.848668
2005-02-18 08:51:06 51°12.745 2°49.907 14.1556 0.070645 0.414437 -0.848668
2005-02-18 08:51:12 51°12.735 2°49.878 14.116 0.070645 0.414451 -0.848668
2005-02-18 08:51:16 51°12.729 2°49.859 14.1585 0.070645 0.414451 -0.848668
2005-02-18 08:51:22 51°12.718 2°49.831 14.1552 0.070645 0.414459 -0.848668
2005-02-18 08:51:27 51°12.71 2°49.807 14.1026 0.070645 0.414459 -0.848668
2005-02-18 08:51:31 51°12.702 2°49.785 14.1619 0.070645 0.414473 -0.848668
2005-02-18 08:51:36 51°12.694 2°49.762 14.1358 0.070645 0.414466 -0.848668
2005-02-18 08:51:41 51°12.685 2°49.738 14.1292 0.070645 0.414473 -0.882377
2005-02-18 08:51:46 51°12.677 2°49.714 14.0781 0.070645 0.414473 -0.882377
2005-02-18 08:51:51 51°12.668 2°49.691 14.0567 0.070645 0.414473 -0.848668
2005-02-18 08:51:56 51°12.66 2°49.669 14.1149 0.070645 0.414488 -0.882377
2005-02-18 08:52:02 51°12.65 2°49.641 14.1418 0.070645 0.414488 -0.848668
2005-02-18 08:52:07 51°12.642 2°49.617 14.1242 0.070645 0.414495 -0.848668
2005-02-18 08:52:12 51°12.633 2°49.593 14.1579 0.070645 0.414503 -0.848668
2005-02-18 08:52:16 51°12.626 2°49.572 14.1378 0.070645 0.414503 -0.848668
2005-02-18 08:52:22 51°12.616 2°49.546 14.1678 0.070645 0.414517 -0.848668
2005-02-18 08:52:27 51°12.608 2°49.522 14.1651 0.070645 0.41451 -0.848668
2005-02-18 08:52:32 51°12.599 2°49.498 14.14 0.070645 0.414517 -0.848668
2005-02-18 08:52:37 51°12.591 2°49.475 14.1403 0.070645 0.414525 -0.848668
2005-02-18 08:52:42 51°12.582 2°49.451 14.1301 0.070645 0.414539 -0.848668
2005-02-18 08:52:47 51°12.574 2°49.427 14.1334 0.070645 0.414539 -0.848668
2005-02-18 08:52:52 51°12.565 2°49.403 14.0833 0.070645 0.414547 -0.848668
2005-02-18 08:52:56 51°12.559 2°49.384 14.1602 0.070645 0.414547 -0.848668
2005-02-18 08:53:01 51°12.55 2°49.358 14.1444 0.070645 0.414554 -0.848668
2005-02-18 08:53:05 51°12.543 2°49.339 14.1702 0.070645 0.414561 -0.848668
2005-02-18 08:53:12 51°12.532 2°49.308 14.1521 0.070645 0.414576 -0.814958
2005-02-18 08:53:17 51°12.523 2°49.284 14.1727 0.070645 0.414576 -0.814958
2005-02-18 08:53:21 51°12.516 2°49.263 14.1435 0.070645 0.414576 -0.848668
2005-02-18 08:53:26 51°12.507 2°49.239 14.1346 0.070645 0.414583 -0.848668
2005-02-18 08:53:32 51°12.498 2°49.213 14.1382 0.070645 0.414591 -0.848668
2005-02-18 08:53:37 51°12.489 2°49.189 14.1645 0.070645 0.414591 -0.814958
2005-02-18 08:53:41 51°12.481 2°49.168 14.1028 0.070645 0.414605 -0.814958
2005-02-18 08:53:46 51°12.474 2°49.147 14.1706 0.070645 0.414605 -0.814958
2005-02-18 08:53:52 51°12.464 2°49.118 14.161 0.070645 0.414613 -0.848668
2005-02-18 08:53:56 51°12.457 2°49.099 14.2163 0.070645 0.414627 -0.848668
2005-02-18 08:54:02 51°12.447 2°49.07 14.1715 0.070645 0.414635 -0.848668
2005-02-18 08:54:06 51°12.439 2°49.049 14.1642 0.070645 0.414642 -0.848668
2005-02-18 08:54:12 51°12.43 2°49.023 14.1836 0.070645 0.414649 -0.882377
2005-02-18 08:54:16 51°12.422 2°49.001 14.181 0.070645 0.414649 -0.882377
2005-02-18 08:54:21 51°12.414 2°48.977 14.1412 0.070645 0.414657 -0.848668
2005-02-18 08:54:27 51°12.405 2°48.95 14.208 0.070645 0.414664 -0.848668
2005-02-18 08:54:32 51°12.396 2°48.927 14.1282 0.070645 0.414671 -0.848668
2005-02-18 08:54:36 51°12.389 2°48.908 14.1754 0.070541 0.414047 -0.848668
2005-02-18 08:54:41 51°12.38 2°48.882 14.069 0.070541 0.414054 -0.848668
2005-02-18 08:54:47 51°12.371 2°48.856 14.1734 0.070541 0.414054 -0.848668
2005-02-18 08:54:52 51°12.362 2°48.832 14.1434 0.070645 0.414686 -0.848668
2005-02-18 08:54:56 51°12.355 2°48.813 14.1888 0.070541 0.414069 -0.848668
2005-02-18 08:55:02 51°12.345 2°48.784 14.1779 0.070541 0.414083 -0.814958
2005-02-18 08:55:06 51°12.339 2°48.765 14.2149 0.070541 0.414083 -0.848668
2005-02-18 08:55:12 51°12.328 2°48.736 14.1306 0.070645 0.414723 -0.848668
2005-02-18 08:55:16 51°12.321 2°48.717 14.2059 0.070645 0.414723 -0.848668
2005-02-18 08:55:21 51°12.312 2°48.691 14.1555 0.070541 0.414098 -0.882377
2005-02-18 08:55:25 51°12.305 2°48.672 14.1837 0.070541 0.414105 -0.848668
2005-02-18 08:55:32 51°12.294 2°48.641 14.1565 0.070645 0.414745 -0.848668
2005-02-18 08:55:37 51°12.285 2°48.618 14.1772 0.070541 0.414127 -0.848668
2005-02-18 08:55:41 51°12.277 2°48.596 14.1677 0.070645 0.414759 -0.848668
2005-02-18 08:55:46 51°12.27 2°48.575 14.1953 0.070645 0.414759 -0.848668
2005-02-18 08:55:52 51°12.26 2°48.546 14.1944 0.070541 0.414142 -0.848668
2005-02-18 08:55:57 51°12.251 2°48.522 14.2098 0.070541 0.414149 -0.814958
2005-02-18 08:56:01 51°12.243 2°48.5 14.2136 0.070541 0.414157 -0.882377
2005-02-18 08:56:07 51°12.234 2°48.474 14.1504 0.070541 0.414157 -0.848668
2005-02-18 08:56:12 51°12.225 2°48.45 14.1806 0.070541 0.414164 -0.848668
2005-02-18 08:56:16 51°12.218 2°48.429 14.1582 0.070541 0.414164 -0.848668
2005-02-18 08:56:21 51°12.209 2°48.405 14.2067 0.070541 0.414179 -0.848668
2005-02-18 08:56:26 51°12.201 2°48.383 14.2324 0.070541 0.414186 -0.848668
2005-02-18 08:56:32 51°12.191 2°48.354 14.2097 0.070541 0.414193 -0.814958
2005-02-18 08:56:36 51°12.183 2°48.333 14.1909 0.070541 0.414208 -0.848668
2005-02-18 08:56:42 51°12.174 2°48.307 14.1418 0.070541 0.414208 -0.848668
2005-02-18 08:56:47 51°12.165 2°48.283 14.1407 0.070541 0.414208 -0.848668
2005-02-18 08:56:52 51°12.156 2°48.259 14.1914 0.070541 0.414215 -0.848668
2005-02-18 08:56:57 51°12.148 2°48.236 14.2065 0.070541 0.414223 -0.848668
2005-02-18 08:57:02 51°12.139 2°48.212 14.2042 0.070541 0.41423 -0.848668
2005-02-18 08:57:07 51°12.131 2°48.188 14.204 0.070541 0.414237 -0.848668
2005-02-18 08:57:12 51°12.122 2°48.164 14.201 0.070541 0.414245 -0.848668
2005-02-18 08:57:16 51°12.115 2°48.145 14.2213 0.070541 0.414245 -0.848668
2005-02-18 08:57:21 51°12.105 2°48.12 14.2046 0.070541 0.414245 -0.814958
2005-02-18 08:57:27 51°12.096 2°48.093 14.2141 0.070541 0.414259 -0.814958
2005-02-18 08:57:32 51°12.087 2°48.07 14.2047 0.070541 0.414267 -0.848668
2005-02-18 08:57:36 51°12.08 2°48.051 14.176 0.070541 0.414274 -0.848668
2005-02-18 08:57:41 51°12.071 2°48.025 14.1935 0.070541 0.414282 -0.848668
2005-02-18 08:57:46 51°12.063 2°48.003 14.2078 0.070541 0.414282 -0.848668
2005-02-18 08:57:52 51°12.053 2°47.975 14.1647 0.070541 0.414289 -0.814958
2005-02-18 08:57:57 51°12.045 2°47.951 14.1774 0.070541 0.414296 -0.848668
2005-02-18 08:58:01 51°12.037 2°47.929 14.2162 0.070541 0.414289 -0.848668
2005-02-18 08:58:07 51°12.028 2°47.903 14.2469 0.070541 0.414304 -0.848668
2005-02-18 08:58:12 51°12.019 2°47.879 14.2542 0.070541 0.414318 -0.814958
2005-02-18 08:58:17 51°12.011 2°47.855 14.2492 0.070541 0.414318 -0.814958
2005-02-18 08:58:22 51°12.002 2°47.831 14.2061 0.070541 0.414318 -0.848668
2005-02-18 08:58:25 51°11.996 2°47.814 14.1869 0.070541 0.41434 -0.848668
2005-02-18 08:58:32 51°11.984 2°47.783 14.1828 0.070541 0.41434 -0.848668
2005-02-18 08:58:36 51°11.977 2°47.764 14.1751 0.070541 0.41434 -0.848668
2005-02-18 08:58:41 51°11.968 2°47.737 14.2308 0.070541 0.414355 -0.848668
2005-02-18 08:58:47 51°11.958 2°47.711 14.2323 0.070541 0.414355 -0.848668
2005-02-18 08:58:51 51°11.95 2°47.689 14.1955 0.070541 0.414362 -0.848668
2005-02-18 08:58:56 51°11.943 2°47.667 14.2042 0.070541 0.414362 -0.848668
2005-02-18 08:59:02 51°11.932 2°47.638 14.2163 0.070541 0.41437 -0.848668
2005-02-18 08:59:07 51°11.923 2°47.614 14.1794 0.070541 0.414377 -0.848668
2005-02-18 08:59:11 51°11.916 2°47.592 14.2256 0.070541 0.414384 -0.882377
2005-02-18 08:59:17 51°11.906 2°47.565 14.2353 0.070541 0.414384 -0.882377
2005-02-18 08:59:22 51°11.898 2°47.541 14.2212 0.070541 0.414392 -0.814958
2005-02-18 08:59:27 51°11.889 2°47.517 14.2514 0.070541 0.414406 -0.848668
2005-02-18 08:59:32 51°11.88 2°47.492 14.2579 0.070541 0.414399 -0.848668
2005-02-18 08:59:37 51°11.871 2°47.468 14.252 0.070541 0.414414 -0.848668
2005-02-18 08:59:42 51°11.862 2°47.444 14.1843 0.070541 0.414421 -0.848668
2005-02-18 08:59:47 51°11.854 2°47.42 14.2278 0.070541 0.414421 -0.848668
2005-02-18 08:59:52 51°11.845 2°47.396 14.2336 0.070541 0.414428 -0.848668
2005-02-18 08:59:56 51°11.837 2°47.374 14.2469 0.070541 0.414436 -0.814958
2005-02-18 09:00:02 51°11.827 2°47.347 14.2091 0.070541 0.414436 -0.848668
2005-02-18 09:00:07 51°11.818 2°47.323 14.2572 0.070541 0.41445 -0.848668
2005-02-18 09:00:12 51°11.809 2°47.298 14.274 0.070541 0.414465 -0.848668
2005-02-18 09:00:17 51°11.801 2°47.274 14.2494 0.070541 0.414465 -0.848668
2005-02-18 09:00:21 51°11.793 2°47.253 14.1697 0.070541 0.414472 -0.814958
2005-02-18 09:00:26 51°11.784 2°47.228 14.2438 0.070541 0.414487 -0.848668
2005-02-18 09:00:32 51°11.774 2°47.202 14.2453 0.070541 0.414487 -0.848668
2005-02-18 09:00:36 51°11.767 2°47.182 14.2399 0.070541 0.414494 -0.848668
2005-02-18 09:00:42 51°11.756 2°47.153 14.2555 0.070541 0.414509 -0.848668
2005-02-18 09:00:46 51°11.748 2°47.131 14.2227 0.070541 0.414509 -0.848668
2005-02-18 09:00:51 51°11.739 2°47.108 14.2178 0.070541 0.414509 -0.848668
2005-02-18 09:00:57 51°11.729 2°47.081 14.2414 0.070541 0.414524 -0.814958
2005-02-18 09:01:02 51°11.72 2°47.057 14.2346 0.070541 0.414531 -0.848668
2005-02-18 09:01:07 51°11.712 2°47.033 14.2326 0.070541 0.414539 -0.848668
2005-02-18 09:01:12 51°11.703 2°47.008 14.2653 0.070541 0.414546 -0.882377
2005-02-18 09:01:16 51°11.695 2°46.986 14.261 0.070541 0.414546 -0.882377
2005-02-18 09:01:22 51°11.686 2°46.96 14.0942 0.070541 0.414561 -0.848668
2005-02-18 09:01:27 51°11.677 2°46.935 14.1212 0.070541 0.414561 -0.848668
2005-02-18 09:01:32 51°11.67 2°46.91 14.189 0.070541 0.414568 -0.882377
2005-02-18 09:01:36 51°11.663 2°46.887 14.1885 0.070541 0.41459 -0.882377
2005-02-18 09:01:41 51°11.656 2°46.862 14.2305 0.070541 0.41459 -0.814958
2005-02-18 09:01:47 51°11.648 2°46.833 14.222 0.070541 0.41459 -0.814958
2005-02-18 09:01:52 51°11.641 2°46.808 14.2581 0.070541 0.414612 -0.882377
2005-02-18 09:01:56 51°11.636 2°46.787 14.2765 0.070541 0.414597 -0.848668
2005-02-18 09:02:02 51°11.628 2°46.756 14.2809 0.070541 0.414605 -0.848668
2005-02-18 09:02:07 51°11.621 2°46.73 14.2787 0.070541 0.414597 -0.814958
2005-02-18 09:02:12 51°11.614 2°46.704 14.2604 0.070541 0.414605 -0.848668
2005-02-18 09:02:17 51°11.608 2°46.678 14.2488 0.070541 0.414605 -0.848668
2005-02-18 09:02:22 51°11.601 2°46.653 14.2376 0.070541 0.414619 -0.848668
2005-02-18 09:02:26 51°11.596 2°46.632 14.293 0.070541 0.414642 -0.848668
2005-02-18 09:02:32 51°11.588 2°46.601 14.2838 0.070541 0.414656 -0.848668
2005-02-18 09:02:36 51°11.582 2°46.58 14.2332 0.070541 0.414671 -0.882377
2005-02-18 09:02:42 51°11.574 2°46.549 14.2376 0.070541 0.414686 -0.814958
2005-02-18 09:02:46 51°11.568 2°46.526 14.2322 0.070541 0.414686 -0.814958
2005-02-18 09:02:51 51°11.562 2°46.5 14.2668 0.070541 0.414693 -0.848668
2005-02-18 09:02:57 51°11.555 2°46.471 14.2901 0.070541 0.4147 -0.814958
2005-02-18 09:03:02 51°11.548 2°46.445 14.3173 0.070541 0.4147 -0.814958
2005-02-18 09:03:07 51°11.541 2°46.419 14.3164 0.070541 0.414708 -0.848668
2005-02-18 09:03:12 51°11.535 2°46.393 14.2124 0.070541 0.414708 -0.814958
2005-02-18 09:03:16 51°11.529 2°46.37 14.1659 0.070541 0.414708 -0.814958
2005-02-18 09:03:21 51°11.522 2°46.344 14.2259 0.070541 0.4147 -0.848668
2005-02-18 09:03:27 51°11.514 2°46.316 14.2579 0.070541 0.414708 -0.882377
2005-02-18 09:03:32 51°11.508 2°46.29 14.3305 0.070541 0.414715 -0.848668
2005-02-18 09:03:37 51°11.501 2°46.264 14.2522 0.070541 0.41473 -0.848668
2005-02-18 09:03:41 51°11.495 2°46.241 14.2466 0.070541 0.414737 -0.848668
2005-02-18 09:03:47 51°11.488 2°46.212 14.2015 0.070541 0.414737 -0.848668
2005-02-18 09:03:52 51°11.481 2°46.187 14.2627 0.070541 0.414737 -0.848668
2005-02-18 09:03:56 51°11.475 2°46.163 14.2427 0.070541 0.414752 -0.882377
2005-02-18 09:04:01 51°11.468 2°46.137 14.3039 0.070541 0.414752 -0.848668
2005-02-18 09:04:07 51°11.461 2°46.109 14.2976 0.070541 0.414759 -0.848668
2005-02-18 09:04:12 51°11.454 2°46.083 14.2793 0.070541 0.414759 -0.882377
2005-02-18 09:04:16 51°11.448 2°46.06 14.2737 0.070541 0.414759 -0.882377
2005-02-18 09:04:22 51°11.441 2°46.031 14.2652 0.070541 0.414767 -0.848668
2005-02-18 09:04:26 51°11.436 2°46.011 14.2885 0.070541 0.414774 -0.848668
2005-02-18 09:04:32 51°11.427 2°45.98 14.316 0.070541 0.414774 -0.848668
2005-02-18 09:04:36 51°11.422 2°45.959 14.3151 0.070541 0.414781 -0.848668
2005-02-18 09:04:42 51°11.414 2°45.928 14.1714 0.070541 0.414789 -0.848668
2005-02-18 09:04:47 51°11.408 2°45.902 14.3062 0.070541 0.414789 -0.848668
2005-02-18 09:04:51 51°11.402 2°45.878 14.2763 0.070541 0.414789 -0.882377
2005-02-18 09:04:57 51°11.394 2°45.85 14.2586 0.070541 0.414796 -0.882377
2005-02-18 09:05:01 51°11.388 2°45.827 14.3017 0.070541 0.414803 -0.882377
2005-02-18 09:05:06 51°11.382 2°45.804 14.292 0.070541 0.414803 -0.848668
2005-02-18 09:05:12 51°11.374 2°45.772 14.2785 0.070541 0.414825 -0.848668
2005-02-18 09:05:16 51°11.368 2°45.749 14.3128 0.070541 0.414825 -0.848668
2005-02-18 09:05:21 51°11.361 2°45.723 14.2947 0.070541 0.414825 -0.848668
2005-02-18 09:05:26 51°11.355 2°45.7 14.2825 0.070541 0.41484 -0.882377
2005-02-18 09:05:31 51°11.348 2°45.672 14.2843 0.070541 0.414848 -0.848668
2005-02-18 09:05:37 51°11.341 2°45.643 14.2962 0.070541 0.414855 -0.848668
2005-02-18 09:05:41 51°11.335 2°45.62 14.267 0.070541 0.414862 -0.848668
2005-02-18 09:05:47 51°11.328 2°45.592 14.2799 0.070541 0.414862 -0.848668
2005-02-18 09:05:52 51°11.321 2°45.566 14.287 0.070541 0.414862 -0.882377
2005-02-18 09:05:57 51°11.315 2°45.54 14.3038 0.070541 0.414877 -0.882377
2005-02-18 09:06:01 51°11.309 2°45.517 14.3125 0.070541 0.414877 -0.848668
2005-02-18 09:06:06 51°11.303 2°45.494 14.3008 0.070541 0.414892 -0.848668
2005-02-18 09:06:12 51°11.295 2°45.463 14.2911 0.070541 0.414899 -0.848668
2005-02-18 09:06:17 51°11.288 2°45.437 14.31 0.070541 0.414899 -0.848668
2005-02-18 09:06:21 51°11.282 2°45.414 14.2993 0.070541 0.414921 -0.848668
2005-02-18 09:06:27 51°11.274 2°45.384 14.267 0.070541 0.414921 -0.848668
2005-02-18 09:06:32 51°11.268 2°45.361 14.2413 0.070541 0.414936 -0.848668
2005-02-18 09:06:36 51°11.262 2°45.338 14.3109 0.070541 0.414936 -0.848668
2005-02-18 09:06:41 51°11.255 2°45.312 14.2704 0.070541 0.414943 -0.882377
2005-02-18 09:06:46 51°11.249 2°45.289 14.3466 0.070541 0.414943 -0.882377
2005-02-18 09:06:52 51°11.241 2°45.259 14.3067 0.070541 0.414951 -0.848668
2005-02-18 09:06:56 51°11.236 2°45.238 14.3078 0.070541 0.414958 -0.848668
2005-02-18 09:07:02 51°11.228 2°45.208 14.3254 0.070541 0.414973 -0.848668
2005-02-18 09:07:07 51°11.221 2°45.182 14.275 0.070541 0.414973 -0.848668
2005-02-18 09:07:12 51°11.215 2°45.156 14.2604 0.070437 0.414354 -0.848668
2005-02-18 09:07:16 51°11.21 2°45.136 14.2824 0.070437 0.414354 -0.848668
2005-02-18 09:07:21 51°11.203 2°45.107 14.2614 0.070541 0.414995 -0.814958
2005-02-18 09:07:27 51°11.196 2°45.078 14.273 0.070437 0.414376 -0.848668
2005-02-18 09:07:31 51°11.191 2°45.054 14.2759 0.070541 0.41501 -0.882377
2005-02-18 09:07:36 51°11.186 2°45.028 14.3014 0.070437 0.414384 -0.814958
2005-02-18 09:07:42 51°11.18 2°44.999 14.3446 0.070437 0.414391 -0.848668
2005-02-18 09:07:46 51°11.175 2°44.978 14.3372 0.070437 0.414391 -0.848668
2005-02-18 09:07:52 51°11.169 2°44.946 14.3165 0.070541 0.415024 -0.848668
2005-02-18 09:07:57 51°11.163 2°44.92 14.3423 0.070541 0.415032 -0.848668
2005-02-18 09:08:02 51°11.158 2°44.894 14.3532 0.070437 0.414406 -0.848668
2005-02-18 09:08:07 51°11.152 2°44.868 14.3566 0.070541 0.415046 -0.848668
2005-02-18 09:08:11 51°11.147 2°44.844 14.3433 0.070437 0.41442 -0.848668
2005-02-18 09:08:17 51°11.141 2°44.816 14.343 0.070437 0.41442 -0.848668
2005-02-18 09:08:22 51°11.135 2°44.79 14.2657 0.070437 0.414428 -0.848668
2005-02-18 09:08:25 51°11.13 2°44.772 14.2689 0.070437 0.414435 -0.848668
2005-02-18 09:08:32 51°11.123 2°44.738 14.3144 0.070541 0.415076 -0.848668
2005-02-18 09:08:36 51°11.118 2°44.717 14.3428 0.070437 0.414457 -0.848668
2005-02-18 09:08:42 51°11.112 2°44.685 14.3256 0.070437 0.41445 -0.882377
2005-02-18 09:08:46 51°11.107 2°44.664 14.3326 0.070437 0.41445 -0.882377
2005-02-18 09:08:52 51°11.1 2°44.633 14.334 0.070541 0.415098 -0.848668
2005-02-18 09:08:56 51°11.095 2°44.61 14.354 0.070437 0.414472 -0.848668
2005-02-18 09:09:02 51°11.088 2°44.581 14.3375 0.070437 0.414472 -0.848668
2005-02-18 09:09:07 51°11.083 2°44.555 14.2992 0.070437 0.414479 -0.848668
2005-02-18 09:09:12 51°11.077 2°44.529 14.3291 0.070437 0.414487 -0.848668
2005-02-18 09:09:17 51°11.071 2°44.503 14.318 0.070437 0.414487 -0.848668
2005-02-18 09:09:22 51°11.065 2°44.477 14.3553 0.070437 0.414494 -0.848668
2005-02-18 09:09:26 51°11.061 2°44.456 14.3386 0.070437 0.414501 -0.848668
2005-02-18 09:09:32 51°11.054 2°44.424 14.3538 0.070437 0.414509 -0.848668
2005-02-18 09:09:36 51°11.048 2°44.401 14.3611 0.070437 0.414516 -0.882377
2005-02-18 09:09:41 51°11.042 2°44.375 14.3157 0.070541 0.415157 -0.848668
2005-02-18 09:09:46 51°11.037 2°44.351 14.3164 0.070541 0.415157 -0.848668
2005-02-18 09:09:52 51°11.03 2°44.32 14.3398 0.070437 0.414531 -0.848668
2005-02-18 09:09:56 51°11.025 2°44.296 14.3216 0.070437 0.414531 -0.814958
2005-02-18 09:10:01 51°11.019 2°44.27 14.3493 0.070437 0.414546 -0.848668
2005-02-18 09:10:06 51°11.014 2°44.246 14.333 0.070437 0.414553 -0.848668
2005-02-18 09:10:12 51°11.007 2°44.214 14.3399 0.070541 0.415194 -0.848668
2005-02-18 09:10:16 51°11.002 2°44.191 14.351 0.070541 0.415194 -0.848668
2005-02-18 09:10:22 51°10.995 2°44.162 14.3806 0.070541 0.415201 -0.848668
2005-02-18 09:10:27 51°10.99 2°44.136 14.3814 0.070437 0.414575 -0.848668
2005-02-18 09:10:31 51°10.984 2°44.112 14.3878 0.070437 0.414582 -0.848668
2005-02-18 09:10:36 51°10.978 2°44.086 14.3448 0.070541 0.415223 -0.848668
2005-02-18 09:10:42 51°10.972 2°44.057 14.3273 0.070437 0.414597 -0.848668
2005-02-18 09:10:47 51°10.966 2°44.031 14.3105 0.070437 0.414597 -0.848668
2005-02-18 09:10:52 51°10.96 2°44.005 14.3464 0.070437 0.414605 -0.848668
2005-02-18 09:10:56 51°10.955 2°43.984 14.363 0.070437 0.414612 -0.848668
2005-02-18 09:11:02 51°10.948 2°43.952 14.3752 0.070437 0.414627 -0.814958
2005-02-18 09:11:06 51°10.942 2°43.929 14.3499 0.070437 0.414634 -0.882377
2005-02-18 09:11:12 51°10.936 2°43.9 14.3352 0.070437 0.414649 -0.848668
2005-02-18 09:11:17 51°10.93 2°43.873 14.3685 0.070437 0.414649 -0.848668
2005-02-18 09:11:22 51°10.924 2°43.847 14.3528 0.070437 0.414656 -0.882377
2005-02-18 09:11:26 51°10.919 2°43.824 14.3446 0.070437 0.414656 -0.882377
2005-02-18 09:11:32 51°10.913 2°43.794 14.3594 0.070541 0.415297 -0.848668
2005-02-18 09:11:37 51°10.907 2°43.768 14.3654 0.070437 0.414678 -0.848668
2005-02-18 09:11:41 51°10.902 2°43.744 14.3521 0.070541 0.415327 -0.848668
2005-02-18 09:11:46 51°10.897 2°43.718 14.3794 0.070541 0.415327 -0.848668
2005-02-18 09:11:52 51°10.891 2°43.689 14.3484 0.070437 0.414693 -0.848668
2005-02-18 09:11:57 51°10.885 2°43.663 14.3829 0.070437 0.414708 -0.848668
2005-02-18 09:12:02 51°10.879 2°43.636 14.3676 0.070437 0.414715 -0.848668
2005-02-18 09:12:06 51°10.874 2°43.613 14.3637 0.070541 0.415356 -0.882377
2005-02-18 09:12:12 51°10.868 2°43.584 14.3745 0.070437 0.414737 -0.848668
2005-02-18 09:12:16 51°10.863 2°43.563 14.3833 0.070437 0.414737 -0.848668
2005-02-18 09:12:22 51°10.856 2°43.531 14.3737 0.070437 0.414745 -0.848668
2005-02-18 09:12:26 51°10.851 2°43.508 14.3585 0.070437 0.414759 -0.882377
2005-02-18 09:12:31 51°10.845 2°43.482 14.3814 0.070437 0.414759 -0.848668
2005-02-18 09:12:36 51°10.839 2°43.455 14.3921 0.070541 0.415408 -0.814958
2005-02-18 09:12:42 51°10.833 2°43.427 14.3981 0.070437 0.414789 -0.848668
2005-02-18 09:12:47 51°10.826 2°43.401 14.3917 0.070437 0.414789 -0.848668
2005-02-18 09:12:52 51°10.82 2°43.374 14.348 0.070437 0.414796 -0.848668
2005-02-18 09:12:56 51°10.815 2°43.351 14.3493 0.070437 0.414804 -0.848668
2005-02-18 09:13:01 51°10.809 2°43.325 14.3646 0.070437 0.414811 -0.848668
2005-02-18 09:13:07 51°10.802 2°43.296 14.3591 0.070541 0.41546 -0.848668
2005-02-18 09:13:12 51°10.797 2°43.269 14.3971 0.070437 0.414833 -0.848668
2005-02-18 09:13:16 51°10.791 2°43.246 14.3625 0.070437 0.414833 -0.848668
2005-02-18 09:13:22 51°10.785 2°43.217 14.3586 0.070541 0.415474 -0.848668
2005-02-18 09:13:26 51°10.78 2°43.196 14.412 0.070541 0.415482 -0.848668
2005-02-18 09:13:32 51°10.773 2°43.164 14.3709 0.070437 0.414855 -0.848668
2005-02-18 09:13:36 51°10.769 2°43.143 14.4026 0.070541 0.415497 -0.848668
2005-02-18 09:13:42 51°10.762 2°43.111 14.4039 0.070541 0.415511 -0.882377
2005-02-18 09:13:46 51°10.757 2°43.09 14.3775 0.070541 0.415511 -0.882377
2005-02-18 09:13:51 51°10.75 2°43.061 14.4317 0.070541 0.415519 -0.848668
2005-02-18 09:13:57 51°10.744 2°43.032 14.4188 0.070437 0.414899 -0.882377
2005-02-18 09:14:02 51°10.738 2°43.006 14.3773 0.070541 0.415541 -0.848668
2005-02-18 09:14:07 51°10.732 2°42.98 14.3437 0.070541 0.415548 -0.848668
2005-02-18 09:14:11 51°10.726 2°42.956 14.3613 0.070541 0.415556 -0.882377
2005-02-18 09:14:17 51°10.719 2°42.927 14.4072 0.070541 0.415556 -0.882377
2005-02-18 09:14:21 51°10.714 2°42.904 14.3639 0.070541 0.415563 -0.848668
2005-02-18 09:14:27 51°10.707 2°42.872 14.398 0.070541 0.415571 -0.848668
2005-02-18 09:14:32 51°10.701 2°42.849 14.3822 0.070541 0.415578 -0.848668
2005-02-18 09:14:37 51°10.695 2°42.822 14.3638 0.070541 0.4156 -0.848668
2005-02-18 09:14:41 51°10.69 2°42.799 14.3903 0.070541 0.4156 -0.848668
2005-02-18 09:14:47 51°10.683 2°42.77 14.4037 0.070541 0.4156 -0.848668
2005-02-18 09:14:52 51°10.677 2°42.744 14.3862 0.070541 0.415608 -0.814958
2005-02-18 09:14:57 51°10.671 2°42.717 14.3822 0.070541 0.415615 -0.848668
2005-02-18 09:15:01 51°10.666 2°42.693 14.399 0.070541 0.415622 -0.814958
2005-02-18 09:15:06 51°10.66 2°42.667 14.3948 0.070541 0.415637 -0.848668
2005-02-18 09:15:12 51°10.653 2°42.638 14.3906 0.070541 0.415644 -0.848668
2005-02-18 09:15:16 51°10.649 2°42.617 14.3983 0.070541 0.415644 -0.848668
2005-02-18 09:15:21 51°10.643 2°42.591 14.4342 0.070541 0.415637 -0.848668
2005-02-18 09:15:26 51°10.637 2°42.564 14.4391 0.070541 0.415652 -0.848668
2005-02-18 09:15:32 51°10.63 2°42.533 14.3989 0.070541 0.415659 -0.814958
2005-02-18 09:15:37 51°10.624 2°42.506 14.4364 0.070541 0.415674 -0.848668
2005-02-18 09:15:41 51°10.618 2°42.483 14.4234 0.070541 0.415674 -0.848668
2005-02-18 09:15:46 51°10.612 2°42.456 14.3863 0.070541 0.415674 -0.848668
2005-02-18 09:15:52 51°10.606 2°42.428 14.4137 0.070541 0.415696 -0.848668
2005-02-18 09:15:56 51°10.6 2°42.404 14.4077 0.070541 0.415689 -0.848668
2005-02-18 09:16:02 51°10.594 2°42.375 14.3898 0.070541 0.415704 -0.848668
2005-02-18 09:16:06 51°10.589 2°42.353 14.4204 0.070541 0.415704 -0.882377
2005-02-18 09:16:12 51°10.582 2°42.321 14.4106 0.070541 0.415718 -0.848668
2005-02-18 09:16:17 51°10.576 2°42.295 14.4152 0.070541 0.415718 -0.848668
2005-02-18 09:16:22 51°10.57 2°42.269 14.444 0.070541 0.415718 -0.848668
2005-02-18 09:16:27 51°10.564 2°42.242 14.3929 0.070541 0.415718 -0.848668
2005-02-18 09:16:32 51°10.558 2°42.216 14.4154 0.070541 0.415733 -0.848668
2005-02-18 09:16:36 51°10.553 2°42.192 14.388 0.070541 0.415733 -0.848668
2005-02-18 09:16:42 51°10.546 2°42.162 14.4141 0.070541 0.415741 -0.814958
2005-02-18 09:16:47 51°10.54 2°42.136 14.4261 0.070541 0.415741 -0.814958
2005-02-18 09:16:52 51°10.535 2°42.109 14.415 0.070541 0.415748 -0.848668
2005-02-18 09:16:57 51°10.529 2°42.082 14.4359 0.070541 0.415755 -0.848668
2005-02-18 09:17:01 51°10.523 2°42.058 14.4303 0.070541 0.415755 -0.848668
2005-02-18 09:17:07 51°10.517 2°42.029 14.3718 0.070541 0.415763 -0.882377
2005-02-18 09:17:12 51°10.511 2°42.002 14.4313 0.070541 0.415778 -0.882377
2005-02-18 09:17:16 51°10.505 2°41.978 14.4363 0.070541 0.415778 -0.882377
2005-02-18 09:17:22 51°10.499 2°41.949 14.4606 0.070541 0.415778 -0.848668
2005-02-18 09:17:27 51°10.493 2°41.922 14.4218 0.070541 0.415785 -0.848668
2005-02-18 09:17:32 51°10.487 2°41.896 14.4519 0.070541 0.415785 -0.848668
2005-02-18 09:17:36 51°10.482 2°41.872 14.4417 0.070541 0.415792 -0.848668
2005-02-18 09:17:41 51°10.476 2°41.845 14.49 0.070541 0.415807 -0.848668
2005-02-18 09:17:45 51°10.471 2°41.824 14.4784 0.070541 0.415807 -0.848668
2005-02-18 09:17:52 51°10.462 2°41.79 14.4782 0.070541 0.415807 -0.882377
2005-02-18 09:17:56 51°10.457 2°41.769 14.3937 0.070541 0.415815 -0.848668
2005-02-18 09:18:01 51°10.449 2°41.741 14.4161 0.070541 0.415829 -0.882377
2005-02-18 09:18:07 51°10.44 2°41.713 14.392 0.070541 0.415829 -0.848668
2005-02-18 09:18:12 51°10.433 2°41.687 14.4293 0.070541 0.415837 -0.848668
2005-02-18 09:18:16 51°10.427 2°41.664 14.403 0.070541 0.415837 -0.848668
2005-02-18 09:18:22 51°10.418 2°41.636 14.4622 0.070541 0.415844 -0.848668
2005-02-18 09:18:27 51°10.411 2°41.61 14.4106 0.070541 0.415852 -0.848668
2005-02-18 09:18:32 51°10.403 2°41.585 14.3965 0.070541 0.415867 -0.848668
2005-02-18 09:18:37 51°10.396 2°41.56 14.383 0.070541 0.415867 -0.848668
2005-02-18 09:18:41 51°10.389 2°41.537 14.4138 0.070541 0.415881 -0.882377
2005-02-18 09:18:46 51°10.382 2°41.511 14.3985 0.070541 0.415881 -0.882377
2005-02-18 09:18:52 51°10.374 2°41.482 14.45 0.070541 0.415889 -0.848668
2005-02-18 09:18:57 51°10.366 2°41.457 14.4227 0.070645 0.416531 -0.882377
2005-02-18 09:19:01 51°10.359 2°41.434 14.4378 0.070541 0.415904 -0.848668
2005-02-18 09:19:06 51°10.352 2°41.408 14.4313 0.070541 0.415918 -0.814958
2005-02-18 09:19:12 51°10.344 2°41.38 14.4476 0.070645 0.416561 -0.848668
2005-02-18 09:19:17 51°10.336 2°41.354 14.4257 0.070645 0.416561 -0.848668
2005-02-18 09:19:22 51°10.329 2°41.328 14.4566 0.070645 0.416575 -0.848668
2005-02-18 09:19:27 51°10.321 2°41.303 14.4512 0.070645 0.416575 -0.848668
2005-02-18 09:19:32 51°10.314 2°41.277 14.4693 0.070645 0.41659 -0.882377
2005-02-18 09:19:36 51°10.307 2°41.254 14.4297 0.070645 0.416598 -0.848668
2005-02-18 09:19:41 51°10.299 2°41.229 14.4613 0.070645 0.416605 -0.848668
2005-02-18 09:19:47 51°10.291 2°41.2 14.4799 0.070645 0.416605 -0.848668
2005-02-18 09:19:52 51°10.284 2°41.175 14.4696 0.070645 0.41662 -0.848668
2005-02-18 09:19:57 51°10.276 2°41.149 14.4555 0.070645 0.416627 -0.814958
2005-02-18 09:20:02 51°10.269 2°41.124 14.4685 0.070645 0.416642 -0.848668
2005-02-18 09:20:07 51°10.26 2°41.096 14.4419 0.070645 0.416657 -0.848668
2005-02-18 09:20:12 51°10.254 2°41.073 14.4238 0.070645 0.416664 -0.814958
2005-02-18 09:20:16 51°10.247 2°41.05 14.3966 0.070645 0.416664 -0.814958
2005-02-18 09:20:22 51°10.238 2°41.022 14.4306 0.070645 0.416672 -0.814958
2005-02-18 09:20:27 51°10.231 2°40.996 14.4896 0.070645 0.416679 -0.848668
2005-02-18 09:20:32 51°10.224 2°40.97 14.4484 0.070645 0.416687 -0.814958
2005-02-18 09:20:36 51°10.217 2°40.947 14.4695 0.070645 0.416702 -0.848668
2005-02-18 09:20:41 51°10.209 2°40.922 14.4479 0.070645 0.416709 -0.814958
2005-02-18 09:20:46 51°10.203 2°40.898 14.451 0.070645 0.416709 -0.814958
2005-02-18 09:20:52 51°10.194 2°40.868 14.4715 0.070645 0.416709 -0.848668
2005-02-18 09:20:57 51°10.186 2°40.842 14.4552 0.070645 0.416724 -0.848668
2005-02-18 09:21:02 51°10.179 2°40.816 14.4477 0.070645 0.416731 -0.848668
2005-02-18 09:21:07 51°10.171 2°40.791 14.4262 0.070645 0.416739 -0.848668
2005-02-18 09:21:12 51°10.164 2°40.765 14.4733 0.070645 0.416746 -0.848668
2005-02-18 09:21:17 51°10.156 2°40.739 14.4752 0.070645 0.416746 -0.848668
2005-02-18 09:21:22 51°10.149 2°40.713 14.4503 0.070645 0.416754 -0.848668
2005-02-18 09:21:27 51°10.141 2°40.688 14.4497 0.070645 0.416761 -0.848668
2005-02-18 09:21:32 51°10.134 2°40.662 14.4683 0.070645 0.416768 -0.848668
2005-02-18 09:21:37 51°10.126 2°40.637 14.4753 0.070645 0.416776 -0.848668
2005-02-18 09:21:42 51°10.119 2°40.611 14.4582 0.070645 0.416791 -0.848668
2005-02-18 09:21:46 51°10.113 2°40.59 14.4525 0.070645 0.416791 -0.848668
2005-02-18 09:21:51 51°10.104 2°40.562 14.4667 0.070645 0.416791 -0.848668
2005-02-18 09:21:56 51°10.097 2°40.536 14.4923 0.070645 0.416798 -0.848668
2005-02-18 09:22:02 51°10.089 2°40.508 14.507 0.070645 0.416813 -0.848668
2005-02-18 09:22:06 51°10.083 2°40.487 14.5185 0.070645 0.416806 -0.848668
2005-02-18 09:22:12 51°10.074 2°40.457 14.4904 0.070645 0.416828 -0.848668
2005-02-18 09:22:16 51°10.067 2°40.433 14.4816 0.070645 0.416828 -0.848668
2005-02-18 09:22:22 51°10.059 2°40.405 14.4677 0.070645 0.416835 -0.848668
2005-02-18 09:22:27 51°10.051 2°40.376 14.5017 0.070749 0.417471 -0.848668
2005-02-18 09:22:32 51°10.044 2°40.353 14.5039 0.070749 0.417471 -0.848668
2005-02-18 09:22:37 51°10.036 2°40.327 14.4959 0.070749 0.417485 -0.848668
2005-02-18 09:22:41 51°10.029 2°40.304 14.4852 0.070749 0.417493 -0.814958
2005-02-18 09:22:47 51°10.021 2°40.275 14.5082 0.070749 0.417493 -0.814958
2005-02-18 09:22:52 51°10.013 2°40.25 14.4902 0.070749 0.417493 -0.814958
2005-02-18 09:22:56 51°10.007 2°40.226 14.4976 0.070749 0.417508 -0.848668
2005-02-18 09:23:02 51°9.998 2°40.198 14.3456 0.070749 0.417523 -0.882377
2005-02-18 09:23:06 51°9.992 2°40.177 14.1665 0.070749 0.417523 -0.848668
2005-02-18 09:23:12 51°9.984 2°40.145 14.3341 0.070749 0.41753 -0.882377
2005-02-18 09:23:17 51°9.98 2°40.117 14.3646 0.070749 0.41753 -0.882377
2005-02-18 09:23:21 51°9.976 2°40.092 14.413 0.070749 0.417523 -0.814958
2005-02-18 09:23:27 51°9.973 2°40.062 14.4283 0.070749 0.417485 -0.848668
2005-02-18 09:23:32 51°9.971 2°40.033 14.4423 0.070749 0.417471 -0.848668
2005-02-18 09:23:37 51°9.969 2°40.005 14.4572 0.070749 0.417441 -0.848668
2005-02-18 09:23:41 51°9.967 2°39.979 14.4763 0.070749 0.417441 -0.848668
2005-02-18 09:23:45 51°9.966 2°39.956 14.4788 0.070749 0.417441 -0.848668
2005-02-18 09:23:52 51°9.964 2°39.919 14.494 0.070749 0.417448 -0.848668
2005-02-18 09:23:57 51°9.962 2°39.891 14.5077 0.070749 0.417493 -0.848668
2005-02-18 09:24:01 51°9.961 2°39.865 14.4966 0.070749 0.41756 -0.848668
2005-02-18 09:24:06 51°9.959 2°39.836 14.4908 0.070749 0.417649 -0.848668
2005-02-18 09:24:12 51°9.957 2°39.805 14.4517 0.070749 0.417724 -0.848668
2005-02-18 09:24:16 51°9.956 2°39.779 14.493 0.070749 0.417724 -0.848668
2005-02-18 09:24:22 51°9.954 2°39.748 14.4739 0.070749 0.417761 -0.882377
2005-02-18 09:24:27 51°9.952 2°39.719 14.477 0.070749 0.417783 -0.848668
2005-02-18 09:24:32 51°9.951 2°39.69 14.4419 0.070749 0.417769 -0.848668
2005-02-18 09:24:36 51°9.949 2°39.668 14.5024 0.070749 0.417739 -0.848668
2005-02-18 09:24:42 51°9.947 2°39.633 14.4745 0.070749 0.417694 -0.848668
2005-02-18 09:24:46 51°9.946 2°39.611 14.4801 0.070749 0.417694 -0.848668
2005-02-18 09:24:52 51°9.944 2°39.576 14.4689 0.070749 0.417649 -0.848668
2005-02-18 09:24:56 51°9.943 2°39.551 14.4814 0.070749 0.417627 -0.848668
2005-02-18 09:25:02 51°9.94 2°39.52 14.4426 0.070749 0.417597 -0.848668
2005-02-18 09:25:07 51°9.939 2°39.491 14.464 0.070749 0.417597 -0.882377
2005-02-18 09:25:12 51°9.937 2°39.463 14.4709 0.070749 0.417634 -0.882377
2005-02-18 09:25:16 51°9.936 2°39.437 14.4503 0.070749 0.417634 -0.882377
2005-02-18 09:25:22 51°9.934 2°39.406 14.4513 0.070749 0.417672 -0.848668
2005-02-18 09:25:27 51°9.932 2°39.378 14.4622 0.070749 0.417709 -0.814958
2005-02-18 09:25:31 51°9.931 2°39.352 14.473 0.070749 0.417761 -0.848668
2005-02-18 09:25:37 51°9.929 2°39.321 14.4857 0.070749 0.417783 -0.814958
2005-02-18 09:25:42 51°9.927 2°39.293 14.5015 0.070749 0.417798 -0.882377
2005-02-18 09:25:47 51°9.926 2°39.264 14.4759 0.070749 0.417798 -0.882377
2005-02-18 09:25:52 51°9.924 2°39.236 14.4768 0.070749 0.417806 -0.882377
2005-02-18 09:25:56 51°9.922 2°39.211 14.4867 0.070853 0.418434 -0.848668
2005-02-18 09:26:02 51°9.92 2°39.18 14.5006 0.070853 0.418419 -0.814958
2005-02-18 09:26:06 51°9.919 2°39.154 14.4917 0.070853 0.418419 -0.882377
2005-02-18 09:26:12 51°9.917 2°39.123 14.4895 0.070853 0.418412 -0.848668
2005-02-18 09:26:16 51°9.916 2°39.097 14.4909 0.070853 0.418412 -0.848668
2005-02-18 09:26:22 51°9.914 2°39.066 14.4961 0.070853 0.418412 -0.848668
2005-02-18 09:26:26 51°9.912 2°39.044 14.4937 0.070853 0.418419 -0.848668
2005-02-18 09:26:32 51°9.91 2°39.01 14.4932 0.070853 0.418442 -0.848668
2005-02-18 09:26:37 51°9.909 2°38.982 14.4998 0.070853 0.418449 -0.848668
2005-02-18 09:26:41 51°9.907 2°38.957 14.4948 0.070853 0.418464 -0.848668
2005-02-18 09:26:47 51°9.905 2°38.923 14.4847 0.070853 0.418464 -0.848668
2005-02-18 09:26:52 51°9.903 2°38.898 14.4845 0.070853 0.418479 -0.848668
2005-02-18 09:26:57 51°9.901 2°38.869 14.4816 0.070853 0.418487 -0.882377
2005-02-18 09:27:02 51°9.9 2°38.841 14.4871 0.070853 0.418487 -0.848668
2005-02-18 09:27:05 51°9.898 2°38.822 14.4846 0.070853 0.418487 -0.848668
2005-02-18 09:27:12 51°9.896 2°38.785 14.4592 0.070853 0.418494 -0.882377
2005-02-18 09:27:17 51°9.894 2°38.757 14.4927 0.070853 0.418494 -0.882377
2005-02-18 09:27:22 51°9.893 2°38.729 14.4612 0.070853 0.418494 -0.882377
2005-02-18 09:27:26 51°9.892 2°38.706 14.5211 0.070853 0.418501 -0.814958
2005-02-18 09:27:32 51°9.89 2°38.673 14.5423 0.070853 0.418509 -0.848668
2005-02-18 09:27:37 51°9.888 2°38.645 14.5491 0.070853 0.418516 -0.848668
2005-02-18 09:27:42 51°9.886 2°38.617 14.4861 0.070853 0.418531 -0.882377
2005-02-18 09:27:47 51°9.884 2°38.589 14.5229 0.070853 0.418531 -0.882377
2005-02-18 09:27:52 51°9.882 2°38.561 14.4876 0.070853 0.418539 -0.848668
2005-02-18 09:27:57 51°9.88 2°38.533 14.5073 0.070853 0.418554 -0.814958
2005-02-18 09:28:02 51°9.878 2°38.505 14.4871 0.070853 0.418554 -0.848668
2005-02-18 09:28:06 51°9.877 2°38.483 14.4876 0.070853 0.418561 -0.848668
2005-02-18 09:28:12 51°9.874 2°38.449 14.467 0.070853 0.418569 -0.848668
2005-02-18 09:28:16 51°9.873 2°38.424 14.5176 0.070853 0.418569 -0.848668
2005-02-18 09:28:22 51°9.87 2°38.393 14.4886 0.070853 0.418561 -0.882377
2005-02-18 09:28:26 51°9.869 2°38.368 14.513 0.070853 0.418569 -0.848668
2005-02-18 09:28:31 51°9.867 2°38.34 14.4897 0.070957 0.419205 -0.848668
2005-02-18 09:28:36 51°9.865 2°38.312 14.5238 0.070957 0.419235 -0.882377
2005-02-18 09:28:42 51°9.863 2°38.281 14.5089 0.070957 0.419235 -0.814958
2005-02-18 09:28:47 51°9.861 2°38.253 14.5278 0.070957 0.419235 -0.814958
2005-02-18 09:28:52 51°9.859 2°38.225 14.5291 0.070957 0.419242 -0.882377
2005-02-18 09:28:56 51°9.858 2°38.202 14.5209 0.070957 0.419257 -0.814958
2005-02-18 09:29:02 51°9.856 2°38.169 14.5307 0.070957 0.419265 -0.848668
2005-02-18 09:29:07 51°9.854 2°38.138 14.5208 0.070957 0.419272 -0.882377
2005-02-18 09:29:12 51°9.852 2°38.113 14.5404 0.070957 0.419272 -0.848668
2005-02-18 09:29:16 51°9.851 2°38.088 14.5374 0.070957 0.419272 -0.848668
2005-02-18 09:29:22 51°9.849 2°38.057 14.5169 0.070957 0.41928 -0.882377
2005-02-18 09:29:27 51°9.847 2°38.028 14.55 0.070957 0.419287 -0.814958
2005-02-18 09:29:32 51°9.845 2°38 14.5443 0.070957 0.419295 -0.848668
2005-02-18 09:29:36 51°9.843 2°37.978 14.5528 0.070957 0.41931 -0.848668
2005-02-18 09:29:41 51°9.841 2°37.947 14.5409 0.070957 0.419317 -0.848668
2005-02-18 09:29:46 51°9.839 2°37.919 14.5148 0.070957 0.419317 -0.848668
2005-02-18 09:29:52 51°9.837 2°37.888 14.5146 0.070957 0.419325 -0.848668
2005-02-18 09:29:57 51°9.835 2°37.86 14.5417 0.070957 0.41934 -0.814958
2005-02-18 09:30:02 51°9.833 2°37.832 14.5586 0.070957 0.419347 -0.848668
2005-02-18 09:30:06 51°9.831 2°37.804 14.5231 0.070957 0.419355 -0.848668
2005-02-18 09:30:11 51°9.829 2°37.776 14.5745 0.070957 0.419355 -0.848668
2005-02-18 09:30:16 51°9.827 2°37.753 14.5632 0.070957 0.419355 -0.848668
2005-02-18 09:30:21 51°9.825 2°37.719 14.5289 0.070957 0.41937 -0.814958
2005-02-18 09:30:26 51°9.823 2°37.694 14.5113 0.070957 0.41937 -0.848668
2005-02-18 09:30:31 51°9.821 2°37.666 14.5601 0.070957 0.419377 -0.848668
2005-02-18 09:30:36 51°9.819 2°37.638 14.5486 0.070957 0.419392 -0.848668
2005-02-18 09:30:41 51°9.817 2°37.607 14.5666 0.070957 0.4194 -0.848668
2005-02-18 09:30:46 51°9.815 2°37.579 14.5613 0.070957 0.4194 -0.848668
2005-02-18 09:30:51 51°9.813 2°37.551 14.5777 0.070957 0.419407 -0.848668
2005-02-18 09:30:56 51°9.811 2°37.525 14.5594 0.070957 0.419415 -0.882377
2005-02-18 09:31:01 51°9.809 2°37.494 14.5493 0.071061 0.420066 -0.848668
2005-02-18 09:31:06 51°9.807 2°37.469 14.5482 0.070957 0.419437 -0.848668
2005-02-18 09:31:11 51°9.805 2°37.438 14.5449 0.071061 0.420089 -0.848668
2005-02-18 09:31:16 51°9.803 2°37.413 14.5265 0.071061 0.420089 -0.848668
2005-02-18 09:31:21 51°9.801 2°37.385 14.5662 0.071061 0.420096 -0.848668
2005-02-18 09:31:27 51°9.799 2°37.354 14.5739 0.071061 0.420119 -0.882377
2005-02-18 09:31:31 51°9.798 2°37.326 14.571 0.071061 0.420119 -0.882377
2005-02-18 09:31:36 51°9.796 2°37.3 14.5688 0.071061 0.420134 -0.848668
2005-02-18 09:31:42 51°9.794 2°37.269 14.5837 0.071061 0.420149 -0.848668
2005-02-18 09:31:45 51°9.792 2°37.249 14.5699 0.071061 0.420149 -0.848668
2005-02-18 09:31:51 51°9.789 2°37.213 14.5521 0.071061 0.420156 -0.848668
2005-02-18 09:31:55 51°9.788 2°37.19 14.5119 0.071061 0.420171 -0.848668
2005-02-18 09:32:01 51°9.785 2°37.157 14.4884 0.071061 0.420186 -0.848668
2005-02-18 09:32:06 51°9.784 2°37.134 14.3392 0.071061 0.420194 -0.848668
2005-02-18 09:32:11 51°9.783 2°37.1 14.2492 0.071061 0.420216 -0.848668
2005-02-18 09:32:16 51°9.783 2°37.072 14.4359 0.071061 0.420216 -0.848668
2005-02-18 09:32:21 51°9.785 2°37.044 14.4471 0.071061 0.420209 -0.848668
2005-02-18 09:32:25 51°9.787 2°37.021 14.4937 0.071061 0.420209 -0.848668
2005-02-18 09:32:31 51°9.791 2°36.988 14.4881 0.071061 0.420186 -0.848668
2005-02-18 09:32:36 51°9.794 2°36.963 14.5425 0.071061 0.420179 -0.882377
2005-02-18 09:32:41 51°9.798 2°36.935 14.5613 0.071061 0.420186 -0.848668
2005-02-18 09:32:45 51°9.801 2°36.913 14.5389 0.071061 0.420186 -0.848668
2005-02-18 09:32:51 51°9.806 2°36.88 14.5565 0.071061 0.420201 -0.848668
2005-02-18 09:32:55 51°9.81 2°36.855 14.5689 0.071061 0.420246 -0.848668
2005-02-18 09:33:01 51°9.814 2°36.824 14.575 0.071061 0.420291 -0.848668
2005-02-18 09:33:05 51°9.818 2°36.799 14.585 0.071061 0.420344 -0.882377
2005-02-18 09:33:11 51°9.823 2°36.766 14.5848 0.071061 0.420374 -0.848668
2005-02-18 09:33:16 51°9.828 2°36.738 14.5873 0.071061 0.420374 -0.848668
2005-02-18 09:33:21 51°9.832 2°36.71 14.5829 0.071061 0.420389 -0.848668
2005-02-18 09:33:26 51°9.836 2°36.682 14.5107 0.071061 0.420389 -0.848668
2005-02-18 09:33:31 51°9.84 2°36.654 14.4746 0.071061 0.420382 -0.882377
2005-02-18 09:33:36 51°9.844 2°36.629 14.4475 0.071165 0.421004 -0.848668
2005-02-18 09:33:41 51°9.849 2°36.599 14.4968 0.071165 0.420989 -0.848668
2005-02-18 09:33:46 51°9.855 2°36.572 14.5492 0.071165 0.420989 -0.848668
2005-02-18 09:33:51 51°9.861 2°36.544 14.5519 0.071165 0.420973 -0.848668
2005-02-18 09:33:56 51°9.866 2°36.52 14.5884 0.071165 0.420973 -0.882377
2005-02-18 09:34:01 51°9.872 2°36.493 14.5874 0.071165 0.420989 -0.848668
2005-02-18 09:34:06 51°9.878 2°36.465 14.6028 0.071165 0.421011 -0.848668
2005-02-18 09:34:12 51°9.885 2°36.433 14.5835 0.071165 0.421034 -0.814958
2005-02-18 09:34:16 51°9.89 2°36.411 14.5964 0.071165 0.421034 -0.814958
2005-02-18 09:34:21 51°9.896 2°36.384 14.5959 0.071165 0.421056 -0.882377
2005-02-18 09:34:25 51°9.901 2°36.359 14.5942 0.071165 0.421079 -0.848668
2005-02-18 09:34:31 51°9.908 2°36.326 14.6022 0.071165 0.421101 -0.848668
2005-02-18 09:34:36 51°9.914 2°36.299 14.5917 0.071165 0.421109 -0.848668
2005-02-18 09:34:41 51°9.92 2°36.272 14.5847 0.071165 0.421124 -0.882377
2005-02-18 09:34:45 51°9.924 2°36.253 14.6044 0.071165 0.421124 -0.882377
2005-02-18 09:34:51 51°9.932 2°36.218 14.5852 0.071165 0.421132 -0.848668
2005-02-18 09:34:55 51°9.937 2°36.196 14.6084 0.071165 0.421132 -0.848668
2005-02-18 09:35:01 51°9.944 2°36.163 14.6125 0.071165 0.421132 -0.814958
2005-02-18 09:35:05 51°9.949 2°36.141 14.6083 0.071165 0.421139 -0.848668
2005-02-18 09:35:11 51°9.956 2°36.108 14.5589 0.071165 0.421139 -0.882377
2005-02-18 09:35:17 51°9.962 2°36.078 14.5558 0.071165 0.421139 -0.882377
2005-02-18 09:35:21 51°9.968 2°36.054 14.3702 0.071165 0.421154 -0.848668
2005-02-18 09:35:25 51°9.973 2°36.032 14.3265 0.071165 0.421162 -0.848668
2005-02-18 09:35:31 51°9.982 2°36.001 14.4989 0.071165 0.421162 -0.882377
2005-02-18 09:35:36 51°9.99 2°35.978 14.4957 0.071165 0.421177 -0.848668